<?xml version="1.0" encoding="UTF-8" standalone="no" ?>
<gpx xmlns="http://www.topografix.com/GPX/1/1" xmlns:xsi="http://www.w3.org/2001/XMLSchema-instance" xsi:schemaLocation="http://www.topografix.com/GPX/1/1 http://www.topografix.com/GPX/1/1/gpx.xsd" version="1.1" creator="VisuGPX - https://www.visugpx.com">
  <metadata>
    <name>Bonsecours 45Km - 2024</name>
  </metadata>
  <trk>
    <name><![CDATA[Bonsecours 45km - 2024-16788927]]></name>
    <trkseg>
      <trkpt lat="50.50259" lon="3.5888">
        <ele>43</ele>
        <time>2024-05-08T20:18:49Z</time>
      </trkpt>
      <trkpt lat="50.50218" lon="3.5888">
        <ele>42</ele>
        <time>2024-05-08T20:18:59Z</time>
      </trkpt>
      <trkpt lat="50.50205" lon="3.58897">
        <ele>42</ele>
        <time>2024-05-08T20:19:03Z</time>
      </trkpt>
      <trkpt lat="50.50202" lon="3.58922">
        <ele>42</ele>
        <time>2024-05-08T20:19:06Z</time>
      </trkpt>
      <trkpt lat="50.50208" lon="3.59036">
        <ele>40</ele>
        <time>2024-05-08T20:19:23Z</time>
      </trkpt>
      <trkpt lat="50.50216" lon="3.59147">
        <ele>37</ele>
        <time>2024-05-08T20:19:40Z</time>
      </trkpt>
      <trkpt lat="50.50222" lon="3.59191">
        <ele>36</ele>
        <time>2024-05-08T20:19:47Z</time>
      </trkpt>
      <trkpt lat="50.5023" lon="3.59234">
        <ele>35</ele>
        <time>2024-05-08T20:19:53Z</time>
      </trkpt>
      <trkpt lat="50.50245" lon="3.59303">
        <ele>34</ele>
        <time>2024-05-08T20:20:04Z</time>
      </trkpt>
      <trkpt lat="50.50259" lon="3.59371">
        <ele>33</ele>
        <time>2024-05-08T20:20:15Z</time>
      </trkpt>
      <trkpt lat="50.50276" lon="3.59454">
        <ele>32</ele>
        <time>2024-05-08T20:20:28Z</time>
      </trkpt>
      <trkpt lat="50.50305" lon="3.59598">
        <ele>32</ele>
        <time>2024-05-08T20:20:50Z</time>
      </trkpt>
      <trkpt lat="50.5032" lon="3.59676">
        <ele>32</ele>
        <time>2024-05-08T20:21:02Z</time>
      </trkpt>
      <trkpt lat="50.5032" lon="3.59744">
        <ele>33</ele>
        <time>2024-05-08T20:21:12Z</time>
      </trkpt>
      <trkpt lat="50.50322" lon="3.59774">
        <ele>33</ele>
        <time>2024-05-08T20:21:17Z</time>
      </trkpt>
      <trkpt lat="50.50327" lon="3.59781">
        <ele>33</ele>
        <time>2024-05-08T20:21:18Z</time>
      </trkpt>
      <trkpt lat="50.50332" lon="3.59797">
        <ele>33</ele>
        <time>2024-05-08T20:21:21Z</time>
      </trkpt>
      <trkpt lat="50.50323" lon="3.59811">
        <ele>33</ele>
        <time>2024-05-08T20:21:24Z</time>
      </trkpt>
      <trkpt lat="50.50303" lon="3.59833">
        <ele>34</ele>
        <time>2024-05-08T20:21:30Z</time>
      </trkpt>
      <trkpt lat="50.50293" lon="3.59848">
        <ele>34</ele>
        <time>2024-05-08T20:21:33Z</time>
      </trkpt>
      <trkpt lat="50.50261" lon="3.59897">
        <ele>35</ele>
        <time>2024-05-08T20:21:43Z</time>
      </trkpt>
      <trkpt lat="50.50203" lon="3.59987">
        <ele>35</ele>
        <time>2024-05-08T20:22:02Z</time>
      </trkpt>
      <trkpt lat="50.50167" lon="3.60045">
        <ele>35</ele>
        <time>2024-05-08T20:22:14Z</time>
      </trkpt>
      <trkpt lat="50.50109" lon="3.60136">
        <ele>36</ele>
        <time>2024-05-08T20:22:33Z</time>
      </trkpt>
      <trkpt lat="50.50054" lon="3.60222">
        <ele>37</ele>
        <time>2024-05-08T20:22:52Z</time>
      </trkpt>
      <trkpt lat="50.5001" lon="3.60289">
        <ele>39</ele>
        <time>2024-05-08T20:23:06Z</time>
      </trkpt>
      <trkpt lat="50.50026" lon="3.60324">
        <ele>39</ele>
        <time>2024-05-08T20:23:12Z</time>
      </trkpt>
      <trkpt lat="50.50035" lon="3.60392">
        <ele>39</ele>
        <time>2024-05-08T20:23:23Z</time>
      </trkpt>
      <trkpt lat="50.49995" lon="3.60461">
        <ele>39</ele>
        <time>2024-05-08T20:23:36Z</time>
      </trkpt>
      <trkpt lat="50.5002" lon="3.60498">
        <ele>40</ele>
        <time>2024-05-08T20:23:45Z</time>
      </trkpt>
      <trkpt lat="50.50078" lon="3.60611">
        <ele>40</ele>
        <time>2024-05-08T20:24:06Z</time>
      </trkpt>
      <trkpt lat="50.50111" lon="3.60692">
        <ele>39</ele>
        <time>2024-05-08T20:24:20Z</time>
      </trkpt>
      <trkpt lat="50.50096" lon="3.60707">
        <ele>40</ele>
        <time>2024-05-08T20:24:25Z</time>
      </trkpt>
      <trkpt lat="50.50046" lon="3.60771">
        <ele>44</ele>
        <time>2024-05-08T20:24:40Z</time>
      </trkpt>
      <trkpt lat="50.50028" lon="3.60795">
        <ele>45</ele>
        <time>2024-05-08T20:24:45Z</time>
      </trkpt>
      <trkpt lat="50.49969" lon="3.60797">
        <ele>49</ele>
        <time>2024-05-08T20:24:59Z</time>
      </trkpt>
      <trkpt lat="50.49962" lon="3.60812">
        <ele>50</ele>
        <time>2024-05-08T20:25:02Z</time>
      </trkpt>
      <trkpt lat="50.49923" lon="3.60873">
        <ele>57</ele>
        <time>2024-05-08T20:25:14Z</time>
      </trkpt>
      <trkpt lat="50.49886" lon="3.60928">
        <ele>61</ele>
        <time>2024-05-08T20:25:26Z</time>
      </trkpt>
      <trkpt lat="50.49882" lon="3.60921">
        <ele>61</ele>
        <time>2024-05-08T20:25:28Z</time>
      </trkpt>
      <trkpt lat="50.49863" lon="3.60946">
        <ele>62</ele>
        <time>2024-05-08T20:25:34Z</time>
      </trkpt>
      <trkpt lat="50.49843" lon="3.60969">
        <ele>62</ele>
        <time>2024-05-08T20:25:39Z</time>
      </trkpt>
      <trkpt lat="50.49849" lon="3.60979">
        <ele>63</ele>
        <time>2024-05-08T20:25:41Z</time>
      </trkpt>
      <trkpt lat="50.49848" lon="3.60988">
        <ele>63</ele>
        <time>2024-05-08T20:25:43Z</time>
      </trkpt>
      <trkpt lat="50.4982" lon="3.61013">
        <ele>62</ele>
        <time>2024-05-08T20:25:50Z</time>
      </trkpt>
      <trkpt lat="50.49779" lon="3.61035">
        <ele>61</ele>
        <time>2024-05-08T20:26:00Z</time>
      </trkpt>
      <trkpt lat="50.49784" lon="3.61098">
        <ele>61</ele>
        <time>2024-05-08T20:26:10Z</time>
      </trkpt>
      <trkpt lat="50.49785" lon="3.61109">
        <ele>61</ele>
        <time>2024-05-08T20:26:11Z</time>
      </trkpt>
      <trkpt lat="50.49791" lon="3.61173">
        <ele>62</ele>
        <time>2024-05-08T20:26:21Z</time>
      </trkpt>
      <trkpt lat="50.4979" lon="3.61189">
        <ele>62</ele>
        <time>2024-05-08T20:26:23Z</time>
      </trkpt>
      <trkpt lat="50.49776" lon="3.61188">
        <ele>61</ele>
        <time>2024-05-08T20:26:27Z</time>
      </trkpt>
      <trkpt lat="50.49755" lon="3.61187">
        <ele>60</ele>
        <time>2024-05-08T20:26:32Z</time>
      </trkpt>
      <trkpt lat="50.4974" lon="3.61198">
        <ele>59</ele>
        <time>2024-05-08T20:26:35Z</time>
      </trkpt>
      <trkpt lat="50.49729" lon="3.61194">
        <ele>58</ele>
        <time>2024-05-08T20:26:38Z</time>
      </trkpt>
      <trkpt lat="50.49713" lon="3.61199">
        <ele>56</ele>
        <time>2024-05-08T20:26:42Z</time>
      </trkpt>
      <trkpt lat="50.49719" lon="3.61231">
        <ele>56</ele>
        <time>2024-05-08T20:26:47Z</time>
      </trkpt>
      <trkpt lat="50.49718" lon="3.6126">
        <ele>56</ele>
        <time>2024-05-08T20:26:51Z</time>
      </trkpt>
      <trkpt lat="50.49714" lon="3.61302">
        <ele>55</ele>
        <time>2024-05-08T20:26:58Z</time>
      </trkpt>
      <trkpt lat="50.497" lon="3.61336">
        <ele>53</ele>
        <time>2024-05-08T20:27:04Z</time>
      </trkpt>
      <trkpt lat="50.49709" lon="3.61452">
        <ele>54</ele>
        <time>2024-05-08T20:27:21Z</time>
      </trkpt>
      <trkpt lat="50.4971" lon="3.61482">
        <ele>55</ele>
        <time>2024-05-08T20:27:25Z</time>
      </trkpt>
      <trkpt lat="50.4971" lon="3.61527">
        <ele>56</ele>
        <time>2024-05-08T20:27:32Z</time>
      </trkpt>
      <trkpt lat="50.49712" lon="3.61544">
        <ele>58</ele>
        <time>2024-05-08T20:27:35Z</time>
      </trkpt>
      <trkpt lat="50.49719" lon="3.61557">
        <ele>59</ele>
        <time>2024-05-08T20:27:37Z</time>
      </trkpt>
      <trkpt lat="50.4973" lon="3.61561">
        <ele>60</ele>
        <time>2024-05-08T20:27:40Z</time>
      </trkpt>
      <trkpt lat="50.49744" lon="3.61559">
        <ele>61</ele>
        <time>2024-05-08T20:27:43Z</time>
      </trkpt>
      <trkpt lat="50.49762" lon="3.61565">
        <ele>63</ele>
        <time>2024-05-08T20:27:47Z</time>
      </trkpt>
      <trkpt lat="50.4979" lon="3.61588">
        <ele>67</ele>
        <time>2024-05-08T20:27:55Z</time>
      </trkpt>
      <trkpt lat="50.49797" lon="3.61601">
        <ele>68</ele>
        <time>2024-05-08T20:27:57Z</time>
      </trkpt>
      <trkpt lat="50.49798" lon="3.61614">
        <ele>68</ele>
        <time>2024-05-08T20:27:59Z</time>
      </trkpt>
      <trkpt lat="50.49805" lon="3.6163">
        <ele>69</ele>
        <time>2024-05-08T20:28:02Z</time>
      </trkpt>
      <trkpt lat="50.49791" lon="3.61737">
        <ele>72</ele>
        <time>2024-05-08T20:28:18Z</time>
      </trkpt>
      <trkpt lat="50.49783" lon="3.61776">
        <ele>73</ele>
        <time>2024-05-08T20:28:24Z</time>
      </trkpt>
      <trkpt lat="50.49768" lon="3.61852">
        <ele>73</ele>
        <time>2024-05-08T20:28:36Z</time>
      </trkpt>
      <trkpt lat="50.49764" lon="3.61927">
        <ele>72</ele>
        <time>2024-05-08T20:28:47Z</time>
      </trkpt>
      <trkpt lat="50.49761" lon="3.6198">
        <ele>72</ele>
        <time>2024-05-08T20:28:55Z</time>
      </trkpt>
      <trkpt lat="50.49762" lon="3.62029">
        <ele>72</ele>
        <time>2024-05-08T20:29:03Z</time>
      </trkpt>
      <trkpt lat="50.49766" lon="3.62046">
        <ele>72</ele>
        <time>2024-05-08T20:29:05Z</time>
      </trkpt>
      <trkpt lat="50.49765" lon="3.62079">
        <ele>72</ele>
        <time>2024-05-08T20:29:10Z</time>
      </trkpt>
      <trkpt lat="50.49745" lon="3.62089">
        <ele>70</ele>
        <time>2024-05-08T20:29:15Z</time>
      </trkpt>
      <trkpt lat="50.49729" lon="3.62083">
        <ele>67</ele>
        <time>2024-05-08T20:29:19Z</time>
      </trkpt>
      <trkpt lat="50.49718" lon="3.62085">
        <ele>64</ele>
        <time>2024-05-08T20:29:22Z</time>
      </trkpt>
      <trkpt lat="50.49686" lon="3.62074">
        <ele>58</ele>
        <time>2024-05-08T20:29:29Z</time>
      </trkpt>
      <trkpt lat="50.4966" lon="3.62064">
        <ele>54</ele>
        <time>2024-05-08T20:29:35Z</time>
      </trkpt>
      <trkpt lat="50.49641" lon="3.62048">
        <ele>53</ele>
        <time>2024-05-08T20:29:40Z</time>
      </trkpt>
      <trkpt lat="50.49618" lon="3.6206">
        <ele>52</ele>
        <time>2024-05-08T20:29:46Z</time>
      </trkpt>
      <trkpt lat="50.49615" lon="3.62117">
        <ele>51</ele>
        <time>2024-05-08T20:29:55Z</time>
      </trkpt>
      <trkpt lat="50.49602" lon="3.62196">
        <ele>51</ele>
        <time>2024-05-08T20:30:07Z</time>
      </trkpt>
      <trkpt lat="50.496" lon="3.62275">
        <ele>53</ele>
        <time>2024-05-08T20:30:18Z</time>
      </trkpt>
      <trkpt lat="50.49586" lon="3.62363">
        <ele>53</ele>
        <time>2024-05-08T20:30:32Z</time>
      </trkpt>
      <trkpt lat="50.4958" lon="3.6246">
        <ele>55</ele>
        <time>2024-05-08T20:30:46Z</time>
      </trkpt>
      <trkpt lat="50.49578" lon="3.62557">
        <ele>55</ele>
        <time>2024-05-08T20:31:01Z</time>
      </trkpt>
      <trkpt lat="50.4959" lon="3.62559">
        <ele>56</ele>
        <time>2024-05-08T20:31:04Z</time>
      </trkpt>
      <trkpt lat="50.49618" lon="3.62506">
        <ele>59</ele>
        <time>2024-05-08T20:31:14Z</time>
      </trkpt>
      <trkpt lat="50.49637" lon="3.62448">
        <ele>57</ele>
        <time>2024-05-08T20:31:24Z</time>
      </trkpt>
      <trkpt lat="50.49662" lon="3.62402">
        <ele>56</ele>
        <time>2024-05-08T20:31:33Z</time>
      </trkpt>
      <trkpt lat="50.49679" lon="3.62392">
        <ele>58</ele>
        <time>2024-05-08T20:31:37Z</time>
      </trkpt>
      <trkpt lat="50.4972" lon="3.62369">
        <ele>62</ele>
        <time>2024-05-08T20:31:47Z</time>
      </trkpt>
      <trkpt lat="50.49766" lon="3.62346">
        <ele>65</ele>
        <time>2024-05-08T20:31:58Z</time>
      </trkpt>
      <trkpt lat="50.49756" lon="3.62419">
        <ele>64</ele>
        <time>2024-05-08T20:32:09Z</time>
      </trkpt>
      <trkpt lat="50.49758" lon="3.62438">
        <ele>65</ele>
        <time>2024-05-08T20:32:12Z</time>
      </trkpt>
      <trkpt lat="50.49755" lon="3.62466">
        <ele>67</ele>
        <time>2024-05-08T20:32:16Z</time>
      </trkpt>
      <trkpt lat="50.49748" lon="3.62528">
        <ele>70</ele>
        <time>2024-05-08T20:32:26Z</time>
      </trkpt>
      <trkpt lat="50.49748" lon="3.62564">
        <ele>72</ele>
        <time>2024-05-08T20:32:31Z</time>
      </trkpt>
      <trkpt lat="50.49747" lon="3.62633">
        <ele>72</ele>
        <time>2024-05-08T20:32:41Z</time>
      </trkpt>
      <trkpt lat="50.49746" lon="3.627">
        <ele>71</ele>
        <time>2024-05-08T20:32:51Z</time>
      </trkpt>
      <trkpt lat="50.49755" lon="3.62769">
        <ele>70</ele>
        <time>2024-05-08T20:33:02Z</time>
      </trkpt>
      <trkpt lat="50.49748" lon="3.62812">
        <ele>71</ele>
        <time>2024-05-08T20:33:08Z</time>
      </trkpt>
      <trkpt lat="50.49749" lon="3.62848">
        <ele>71</ele>
        <time>2024-05-08T20:33:14Z</time>
      </trkpt>
      <trkpt lat="50.49757" lon="3.62914">
        <ele>73</ele>
        <time>2024-05-08T20:33:24Z</time>
      </trkpt>
      <trkpt lat="50.49756" lon="3.62971">
        <ele>73</ele>
        <time>2024-05-08T20:33:32Z</time>
      </trkpt>
      <trkpt lat="50.49755" lon="3.63038">
        <ele>72</ele>
        <time>2024-05-08T20:33:42Z</time>
      </trkpt>
      <trkpt lat="50.49754" lon="3.63114">
        <ele>73</ele>
        <time>2024-05-08T20:33:53Z</time>
      </trkpt>
      <trkpt lat="50.49766" lon="3.63239">
        <ele>72</ele>
        <time>2024-05-08T20:34:12Z</time>
      </trkpt>
      <trkpt lat="50.49793" lon="3.63378">
        <ele>70</ele>
        <time>2024-05-08T20:34:34Z</time>
      </trkpt>
      <trkpt lat="50.49788" lon="3.63507">
        <ele>72</ele>
        <time>2024-05-08T20:34:53Z</time>
      </trkpt>
      <trkpt lat="50.49809" lon="3.63604">
        <ele>65</ele>
        <time>2024-05-08T20:35:08Z</time>
      </trkpt>
      <trkpt lat="50.49807" lon="3.63701">
        <ele>59</ele>
        <time>2024-05-08T20:35:23Z</time>
      </trkpt>
      <trkpt lat="50.49798" lon="3.6377">
        <ele>59</ele>
        <time>2024-05-08T20:35:33Z</time>
      </trkpt>
      <trkpt lat="50.49791" lon="3.63784">
        <ele>59</ele>
        <time>2024-05-08T20:35:36Z</time>
      </trkpt>
      <trkpt lat="50.49806" lon="3.63793">
        <ele>58</ele>
        <time>2024-05-08T20:35:40Z</time>
      </trkpt>
      <trkpt lat="50.49808" lon="3.63805">
        <ele>59</ele>
        <time>2024-05-08T20:35:41Z</time>
      </trkpt>
      <trkpt lat="50.49818" lon="3.63806">
        <ele>58</ele>
        <time>2024-05-08T20:35:44Z</time>
      </trkpt>
      <trkpt lat="50.49838" lon="3.63754">
        <ele>56</ele>
        <time>2024-05-08T20:35:53Z</time>
      </trkpt>
      <trkpt lat="50.49923" lon="3.63572">
        <ele>45</ele>
        <time>2024-05-08T20:36:26Z</time>
      </trkpt>
      <trkpt lat="50.49943" lon="3.63548">
        <ele>44</ele>
        <time>2024-05-08T20:36:32Z</time>
      </trkpt>
      <trkpt lat="50.49951" lon="3.63569">
        <ele>44</ele>
        <time>2024-05-08T20:36:36Z</time>
      </trkpt>
      <trkpt lat="50.49962" lon="3.63603">
        <ele>44</ele>
        <time>2024-05-08T20:36:41Z</time>
      </trkpt>
      <trkpt lat="50.49996" lon="3.6371">
        <ele>45</ele>
        <time>2024-05-08T20:36:59Z</time>
      </trkpt>
      <trkpt lat="50.50016" lon="3.63777">
        <ele>43</ele>
        <time>2024-05-08T20:37:10Z</time>
      </trkpt>
      <trkpt lat="50.50027" lon="3.63817">
        <ele>41</ele>
        <time>2024-05-08T20:37:17Z</time>
      </trkpt>
      <trkpt lat="50.5005" lon="3.63894">
        <ele>39</ele>
        <time>2024-05-08T20:37:29Z</time>
      </trkpt>
      <trkpt lat="50.49998" lon="3.6398">
        <ele>45</ele>
        <time>2024-05-08T20:37:47Z</time>
      </trkpt>
      <trkpt lat="50.4991" lon="3.64125">
        <ele>53</ele>
        <time>2024-05-08T20:38:17Z</time>
      </trkpt>
      <trkpt lat="50.49826" lon="3.64259">
        <ele>58</ele>
        <time>2024-05-08T20:38:45Z</time>
      </trkpt>
      <trkpt lat="50.49847" lon="3.64391">
        <ele>70</ele>
        <time>2024-05-08T20:39:05Z</time>
      </trkpt>
      <trkpt lat="50.49809" lon="3.64652">
        <ele>71</ele>
        <time>2024-05-08T20:39:45Z</time>
      </trkpt>
      <trkpt lat="50.49803" lon="3.64695">
        <ele>70</ele>
        <time>2024-05-08T20:39:51Z</time>
      </trkpt>
      <trkpt lat="50.49792" lon="3.64742">
        <ele>68</ele>
        <time>2024-05-08T20:39:59Z</time>
      </trkpt>
      <trkpt lat="50.49766" lon="3.64907">
        <ele>63</ele>
        <time>2024-05-08T20:40:24Z</time>
      </trkpt>
      <trkpt lat="50.49751" lon="3.65001">
        <ele>62</ele>
        <time>2024-05-08T20:40:38Z</time>
      </trkpt>
      <trkpt lat="50.49729" lon="3.65023">
        <ele>61</ele>
        <time>2024-05-08T20:40:44Z</time>
      </trkpt>
      <trkpt lat="50.49744" lon="3.65157">
        <ele>57</ele>
        <time>2024-05-08T20:41:05Z</time>
      </trkpt>
      <trkpt lat="50.49719" lon="3.65246">
        <ele>51</ele>
        <time>2024-05-08T20:41:19Z</time>
      </trkpt>
      <trkpt lat="50.49704" lon="3.6541">
        <ele>46</ele>
        <time>2024-05-08T20:41:44Z</time>
      </trkpt>
      <trkpt lat="50.49674" lon="3.65499">
        <ele>44</ele>
        <time>2024-05-08T20:41:59Z</time>
      </trkpt>
      <trkpt lat="50.49667" lon="3.65487">
        <ele>44</ele>
        <time>2024-05-08T20:42:01Z</time>
      </trkpt>
      <trkpt lat="50.49583" lon="3.65429">
        <ele>45</ele>
        <time>2024-05-08T20:42:22Z</time>
      </trkpt>
      <trkpt lat="50.49573" lon="3.65419">
        <ele>44</ele>
        <time>2024-05-08T20:42:25Z</time>
      </trkpt>
      <trkpt lat="50.49565" lon="3.65395">
        <ele>43</ele>
        <time>2024-05-08T20:42:29Z</time>
      </trkpt>
      <trkpt lat="50.49539" lon="3.65296">
        <ele>41</ele>
        <time>2024-05-08T20:42:45Z</time>
      </trkpt>
      <trkpt lat="50.49458" lon="3.65285">
        <ele>37</ele>
        <time>2024-05-08T20:43:04Z</time>
      </trkpt>
      <trkpt lat="50.49431" lon="3.65288">
        <ele>36</ele>
        <time>2024-05-08T20:43:10Z</time>
      </trkpt>
      <trkpt lat="50.49413" lon="3.65244">
        <ele>36</ele>
        <time>2024-05-08T20:43:18Z</time>
      </trkpt>
      <trkpt lat="50.49395" lon="3.65223">
        <ele>34</ele>
        <time>2024-05-08T20:43:23Z</time>
      </trkpt>
      <trkpt lat="50.49372" lon="3.65219">
        <ele>33</ele>
        <time>2024-05-08T20:43:29Z</time>
      </trkpt>
      <trkpt lat="50.49332" lon="3.65358">
        <ele>34</ele>
        <time>2024-05-08T20:43:52Z</time>
      </trkpt>
      <trkpt lat="50.49289" lon="3.65497">
        <ele>35</ele>
        <time>2024-05-08T20:44:15Z</time>
      </trkpt>
      <trkpt lat="50.49264" lon="3.65585">
        <ele>35</ele>
        <time>2024-05-08T20:44:29Z</time>
      </trkpt>
      <trkpt lat="50.49224" lon="3.65721">
        <ele>33</ele>
        <time>2024-05-08T20:44:51Z</time>
      </trkpt>
      <trkpt lat="50.49218" lon="3.6576">
        <ele>31</ele>
        <time>2024-05-08T20:44:57Z</time>
      </trkpt>
      <trkpt lat="50.49223" lon="3.65781">
        <ele>31</ele>
        <time>2024-05-08T20:45:00Z</time>
      </trkpt>
      <trkpt lat="50.49231" lon="3.65793">
        <ele>31</ele>
        <time>2024-05-08T20:45:03Z</time>
      </trkpt>
      <trkpt lat="50.49241" lon="3.65802">
        <ele>31</ele>
        <time>2024-05-08T20:45:06Z</time>
      </trkpt>
      <trkpt lat="50.49256" lon="3.65806">
        <ele>31</ele>
        <time>2024-05-08T20:45:09Z</time>
      </trkpt>
      <trkpt lat="50.49305" lon="3.65791">
        <ele>32</ele>
        <time>2024-05-08T20:45:21Z</time>
      </trkpt>
      <trkpt lat="50.4937" lon="3.65778">
        <ele>33</ele>
        <time>2024-05-08T20:45:36Z</time>
      </trkpt>
      <trkpt lat="50.49448" lon="3.65777">
        <ele>35</ele>
        <time>2024-05-08T20:45:54Z</time>
      </trkpt>
      <trkpt lat="50.49491" lon="3.65782">
        <ele>36</ele>
        <time>2024-05-08T20:46:04Z</time>
      </trkpt>
      <trkpt lat="50.49521" lon="3.65787">
        <ele>37</ele>
        <time>2024-05-08T20:46:11Z</time>
      </trkpt>
      <trkpt lat="50.49551" lon="3.65801">
        <ele>37</ele>
        <time>2024-05-08T20:46:19Z</time>
      </trkpt>
      <trkpt lat="50.49596" lon="3.65816">
        <ele>36</ele>
        <time>2024-05-08T20:46:30Z</time>
      </trkpt>
      <trkpt lat="50.49637" lon="3.65842">
        <ele>34</ele>
        <time>2024-05-08T20:46:40Z</time>
      </trkpt>
      <trkpt lat="50.49692" lon="3.65881">
        <ele>34</ele>
        <time>2024-05-08T20:46:54Z</time>
      </trkpt>
      <trkpt lat="50.49739" lon="3.6593">
        <ele>35</ele>
        <time>2024-05-08T20:47:07Z</time>
      </trkpt>
      <trkpt lat="50.49823" lon="3.66034">
        <ele>35</ele>
        <time>2024-05-08T20:47:32Z</time>
      </trkpt>
      <trkpt lat="50.49938" lon="3.66178">
        <ele>36</ele>
        <time>2024-05-08T20:48:06Z</time>
      </trkpt>
      <trkpt lat="50.49996" lon="3.6625">
        <ele>35</ele>
        <time>2024-05-08T20:48:24Z</time>
      </trkpt>
      <trkpt lat="50.50012" lon="3.66259">
        <ele>35</ele>
        <time>2024-05-08T20:48:28Z</time>
      </trkpt>
      <trkpt lat="50.50027" lon="3.66254">
        <ele>36</ele>
        <time>2024-05-08T20:48:31Z</time>
      </trkpt>
      <trkpt lat="50.50033" lon="3.66282">
        <ele>36</ele>
        <time>2024-05-08T20:48:36Z</time>
      </trkpt>
      <trkpt lat="50.5003" lon="3.66298">
        <ele>36</ele>
        <time>2024-05-08T20:48:38Z</time>
      </trkpt>
      <trkpt lat="50.50021" lon="3.66315">
        <ele>36</ele>
        <time>2024-05-08T20:48:41Z</time>
      </trkpt>
      <trkpt lat="50.49987" lon="3.66315">
        <ele>35</ele>
        <time>2024-05-08T20:48:49Z</time>
      </trkpt>
      <trkpt lat="50.49952" lon="3.66325">
        <ele>37</ele>
        <time>2024-05-08T20:48:58Z</time>
      </trkpt>
      <trkpt lat="50.49905" lon="3.66337">
        <ele>40</ele>
        <time>2024-05-08T20:49:09Z</time>
      </trkpt>
      <trkpt lat="50.4988" lon="3.66342">
        <ele>44</ele>
        <time>2024-05-08T20:49:15Z</time>
      </trkpt>
      <trkpt lat="50.49866" lon="3.66486">
        <ele>44</ele>
        <time>2024-05-08T20:49:36Z</time>
      </trkpt>
      <trkpt lat="50.49834" lon="3.66515">
        <ele>46</ele>
        <time>2024-05-08T20:49:45Z</time>
      </trkpt>
      <trkpt lat="50.49798" lon="3.66547">
        <ele>48</ele>
        <time>2024-05-08T20:49:55Z</time>
      </trkpt>
      <trkpt lat="50.49775" lon="3.66565">
        <ele>48</ele>
        <time>2024-05-08T20:50:01Z</time>
      </trkpt>
      <trkpt lat="50.49757" lon="3.66575">
        <ele>49</ele>
        <time>2024-05-08T20:50:05Z</time>
      </trkpt>
      <trkpt lat="50.49731" lon="3.66591">
        <ele>49</ele>
        <time>2024-05-08T20:50:12Z</time>
      </trkpt>
      <trkpt lat="50.49708" lon="3.66616">
        <ele>49</ele>
        <time>2024-05-08T20:50:18Z</time>
      </trkpt>
      <trkpt lat="50.49767" lon="3.66494">
        <ele>53</ele>
        <time>2024-05-08T20:50:41Z</time>
      </trkpt>
      <trkpt lat="50.49762" lon="3.66487">
        <ele>53</ele>
        <time>2024-05-08T20:50:42Z</time>
      </trkpt>
      <trkpt lat="50.49702" lon="3.66389">
        <ele>55</ele>
        <time>2024-05-08T20:51:03Z</time>
      </trkpt>
      <trkpt lat="50.49671" lon="3.6634">
        <ele>53</ele>
        <time>2024-05-08T20:51:13Z</time>
      </trkpt>
      <trkpt lat="50.49629" lon="3.66286">
        <ele>55</ele>
        <time>2024-05-08T20:51:26Z</time>
      </trkpt>
      <trkpt lat="50.49606" lon="3.66284">
        <ele>55</ele>
        <time>2024-05-08T20:51:31Z</time>
      </trkpt>
      <trkpt lat="50.49531" lon="3.66259">
        <ele>55</ele>
        <time>2024-05-08T20:51:49Z</time>
      </trkpt>
      <trkpt lat="50.49466" lon="3.6624">
        <ele>54</ele>
        <time>2024-05-08T20:52:04Z</time>
      </trkpt>
      <trkpt lat="50.49401" lon="3.66216">
        <ele>54</ele>
        <time>2024-05-08T20:52:20Z</time>
      </trkpt>
      <trkpt lat="50.49319" lon="3.66175">
        <ele>51</ele>
        <time>2024-05-08T20:52:40Z</time>
      </trkpt>
      <trkpt lat="50.4918" lon="3.66127">
        <ele>39</ele>
        <time>2024-05-08T20:53:13Z</time>
      </trkpt>
      <trkpt lat="50.49211" lon="3.66197">
        <ele>44</ele>
        <time>2024-05-08T20:53:26Z</time>
      </trkpt>
      <trkpt lat="50.49269" lon="3.66344">
        <ele>53</ele>
        <time>2024-05-08T20:53:52Z</time>
      </trkpt>
      <trkpt lat="50.49294" lon="3.66376">
        <ele>53</ele>
        <time>2024-05-08T20:53:59Z</time>
      </trkpt>
      <trkpt lat="50.49249" lon="3.66342">
        <ele>52</ele>
        <time>2024-05-08T20:54:11Z</time>
      </trkpt>
      <trkpt lat="50.49232" lon="3.66348">
        <ele>51</ele>
        <time>2024-05-08T20:54:15Z</time>
      </trkpt>
      <trkpt lat="50.49204" lon="3.66386">
        <ele>50</ele>
        <time>2024-05-08T20:54:23Z</time>
      </trkpt>
      <trkpt lat="50.49192" lon="3.66435">
        <ele>50</ele>
        <time>2024-05-08T20:54:31Z</time>
      </trkpt>
      <trkpt lat="50.49192" lon="3.66466">
        <ele>51</ele>
        <time>2024-05-08T20:54:36Z</time>
      </trkpt>
      <trkpt lat="50.49214" lon="3.66481">
        <ele>52</ele>
        <time>2024-05-08T20:54:41Z</time>
      </trkpt>
      <trkpt lat="50.49221" lon="3.66461">
        <ele>52</ele>
        <time>2024-05-08T20:54:45Z</time>
      </trkpt>
      <trkpt lat="50.49236" lon="3.66454">
        <ele>53</ele>
        <time>2024-05-08T20:54:49Z</time>
      </trkpt>
      <trkpt lat="50.49251" lon="3.66471">
        <ele>54</ele>
        <time>2024-05-08T20:54:53Z</time>
      </trkpt>
      <trkpt lat="50.49282" lon="3.66535">
        <ele>54</ele>
        <time>2024-05-08T20:55:05Z</time>
      </trkpt>
      <trkpt lat="50.49333" lon="3.66607">
        <ele>53</ele>
        <time>2024-05-08T20:55:21Z</time>
      </trkpt>
      <trkpt lat="50.49389" lon="3.66695">
        <ele>53</ele>
        <time>2024-05-08T20:55:39Z</time>
      </trkpt>
      <trkpt lat="50.49418" lon="3.66741">
        <ele>54</ele>
        <time>2024-05-08T20:55:49Z</time>
      </trkpt>
      <trkpt lat="50.49389" lon="3.66793">
        <ele>53</ele>
        <time>2024-05-08T20:55:59Z</time>
      </trkpt>
      <trkpt lat="50.49411" lon="3.66851">
        <ele>54</ele>
        <time>2024-05-08T20:56:09Z</time>
      </trkpt>
      <trkpt lat="50.49441" lon="3.66918">
        <ele>53</ele>
        <time>2024-05-08T20:56:21Z</time>
      </trkpt>
      <trkpt lat="50.49457" lon="3.66954">
        <ele>52</ele>
        <time>2024-05-08T20:56:28Z</time>
      </trkpt>
      <trkpt lat="50.49473" lon="3.67028">
        <ele>51</ele>
        <time>2024-05-08T20:56:40Z</time>
      </trkpt>
      <trkpt lat="50.49482" lon="3.67065">
        <ele>51</ele>
        <time>2024-05-08T20:56:45Z</time>
      </trkpt>
      <trkpt lat="50.49528" lon="3.67059">
        <ele>49</ele>
        <time>2024-05-08T20:56:56Z</time>
      </trkpt>
      <trkpt lat="50.49574" lon="3.67117">
        <ele>47</ele>
        <time>2024-05-08T20:57:10Z</time>
      </trkpt>
      <trkpt lat="50.49625" lon="3.67181">
        <ele>46</ele>
        <time>2024-05-08T20:57:25Z</time>
      </trkpt>
      <trkpt lat="50.49634" lon="3.67227">
        <ele>46</ele>
        <time>2024-05-08T20:57:32Z</time>
      </trkpt>
      <trkpt lat="50.49636" lon="3.67229">
        <ele>46</ele>
        <time>2024-05-08T20:57:33Z</time>
      </trkpt>
      <trkpt lat="50.49641" lon="3.67229">
        <ele>46</ele>
        <time>2024-05-08T20:57:34Z</time>
      </trkpt>
      <trkpt lat="50.49636" lon="3.67248">
        <ele>46</ele>
        <time>2024-05-08T20:57:37Z</time>
      </trkpt>
      <trkpt lat="50.49641" lon="3.67278">
        <ele>46</ele>
        <time>2024-05-08T20:57:42Z</time>
      </trkpt>
      <trkpt lat="50.49666" lon="3.67393">
        <ele>47</ele>
        <time>2024-05-08T20:58:00Z</time>
      </trkpt>
      <trkpt lat="50.49668" lon="3.67421">
        <ele>48</ele>
        <time>2024-05-08T20:58:04Z</time>
      </trkpt>
      <trkpt lat="50.49656" lon="3.67468">
        <ele>48</ele>
        <time>2024-05-08T20:58:11Z</time>
      </trkpt>
      <trkpt lat="50.4965" lon="3.67522">
        <ele>49</ele>
        <time>2024-05-08T20:58:20Z</time>
      </trkpt>
      <trkpt lat="50.49687" lon="3.6754">
        <ele>48</ele>
        <time>2024-05-08T20:58:29Z</time>
      </trkpt>
      <trkpt lat="50.4974" lon="3.67548">
        <ele>48</ele>
        <time>2024-05-08T20:58:41Z</time>
      </trkpt>
      <trkpt lat="50.49857" lon="3.67575">
        <ele>44</ele>
        <time>2024-05-08T20:59:09Z</time>
      </trkpt>
      <trkpt lat="50.49918" lon="3.67539">
        <ele>42</ele>
        <time>2024-05-08T20:59:24Z</time>
      </trkpt>
      <trkpt lat="50.4996" lon="3.67483">
        <ele>41</ele>
        <time>2024-05-08T20:59:37Z</time>
      </trkpt>
      <trkpt lat="50.49986" lon="3.67527">
        <ele>43</ele>
        <time>2024-05-08T20:59:46Z</time>
      </trkpt>
      <trkpt lat="50.5005" lon="3.67654">
        <ele>46</ele>
        <time>2024-05-08T21:00:10Z</time>
      </trkpt>
      <trkpt lat="50.50105" lon="3.67703">
        <ele>44</ele>
        <time>2024-05-08T21:00:25Z</time>
      </trkpt>
      <trkpt lat="50.5014" lon="3.67783">
        <ele>42</ele>
        <time>2024-05-08T21:00:39Z</time>
      </trkpt>
      <trkpt lat="50.50135" lon="3.67857">
        <ele>44</ele>
        <time>2024-05-08T21:00:50Z</time>
      </trkpt>
      <trkpt lat="50.50149" lon="3.6788">
        <ele>44</ele>
        <time>2024-05-08T21:00:55Z</time>
      </trkpt>
      <trkpt lat="50.5015" lon="3.67979">
        <ele>47</ele>
        <time>2024-05-08T21:01:09Z</time>
      </trkpt>
      <trkpt lat="50.50149" lon="3.6802">
        <ele>47</ele>
        <time>2024-05-08T21:01:16Z</time>
      </trkpt>
      <trkpt lat="50.50149" lon="3.68125">
        <ele>48</ele>
        <time>2024-05-08T21:01:31Z</time>
      </trkpt>
      <trkpt lat="50.5015" lon="3.68188">
        <ele>49</ele>
        <time>2024-05-08T21:01:41Z</time>
      </trkpt>
      <trkpt lat="50.5015" lon="3.68225">
        <ele>49</ele>
        <time>2024-05-08T21:01:46Z</time>
      </trkpt>
      <trkpt lat="50.50158" lon="3.68319">
        <ele>46</ele>
        <time>2024-05-08T21:02:00Z</time>
      </trkpt>
      <trkpt lat="50.50172" lon="3.68551">
        <ele>47</ele>
        <time>2024-05-08T21:02:35Z</time>
      </trkpt>
      <trkpt lat="50.50183" lon="3.68734">
        <ele>49</ele>
        <time>2024-05-08T21:03:02Z</time>
      </trkpt>
      <trkpt lat="50.50189" lon="3.68851">
        <ele>50</ele>
        <time>2024-05-08T21:03:19Z</time>
      </trkpt>
      <trkpt lat="50.50204" lon="3.69001">
        <ele>49</ele>
        <time>2024-05-08T21:03:42Z</time>
      </trkpt>
      <trkpt lat="50.50199" lon="3.69018">
        <ele>50</ele>
        <time>2024-05-08T21:03:45Z</time>
      </trkpt>
      <trkpt lat="50.50213" lon="3.69301">
        <ele>52</ele>
        <time>2024-05-08T21:04:27Z</time>
      </trkpt>
      <trkpt lat="50.50197" lon="3.69375">
        <ele>54</ele>
        <time>2024-05-08T21:04:39Z</time>
      </trkpt>
      <trkpt lat="50.50208" lon="3.69399">
        <ele>53</ele>
        <time>2024-05-08T21:04:43Z</time>
      </trkpt>
      <trkpt lat="50.50193" lon="3.69401">
        <ele>54</ele>
        <time>2024-05-08T21:04:46Z</time>
      </trkpt>
      <trkpt lat="50.50088" lon="3.69409">
        <ele>54</ele>
        <time>2024-05-08T21:05:11Z</time>
      </trkpt>
      <trkpt lat="50.49923" lon="3.69431">
        <ele>57</ele>
        <time>2024-05-08T21:05:50Z</time>
      </trkpt>
      <trkpt lat="50.49763" lon="3.69448">
        <ele>65</ele>
        <time>2024-05-08T21:06:27Z</time>
      </trkpt>
      <trkpt lat="50.496" lon="3.69457">
        <ele>70</ele>
        <time>2024-05-08T21:07:05Z</time>
      </trkpt>
      <trkpt lat="50.49329" lon="3.69478">
        <ele>78</ele>
        <time>2024-05-08T21:08:09Z</time>
      </trkpt>
      <trkpt lat="50.49348" lon="3.69627">
        <ele>78</ele>
        <time>2024-05-08T21:08:31Z</time>
      </trkpt>
      <trkpt lat="50.49364" lon="3.69644">
        <ele>79</ele>
        <time>2024-05-08T21:08:36Z</time>
      </trkpt>
      <trkpt lat="50.49427" lon="3.69715">
        <ele>82</ele>
        <time>2024-05-08T21:08:54Z</time>
      </trkpt>
      <trkpt lat="50.49431" lon="3.69743">
        <ele>82</ele>
        <time>2024-05-08T21:08:58Z</time>
      </trkpt>
      <trkpt lat="50.49431" lon="3.6986">
        <ele>83</ele>
        <time>2024-05-08T21:09:15Z</time>
      </trkpt>
      <trkpt lat="50.49439" lon="3.69876">
        <ele>84</ele>
        <time>2024-05-08T21:09:18Z</time>
      </trkpt>
      <trkpt lat="50.49448" lon="3.69933">
        <ele>84</ele>
        <time>2024-05-08T21:09:27Z</time>
      </trkpt>
      <trkpt lat="50.49443" lon="3.6997">
        <ele>84</ele>
        <time>2024-05-08T21:09:33Z</time>
      </trkpt>
      <trkpt lat="50.49441" lon="3.70019">
        <ele>83</ele>
        <time>2024-05-08T21:09:40Z</time>
      </trkpt>
      <trkpt lat="50.49444" lon="3.70041">
        <ele>82</ele>
        <time>2024-05-08T21:09:43Z</time>
      </trkpt>
      <trkpt lat="50.49457" lon="3.70067">
        <ele>81</ele>
        <time>2024-05-08T21:09:48Z</time>
      </trkpt>
      <trkpt lat="50.49628" lon="3.7003">
        <ele>78</ele>
        <time>2024-05-08T21:10:29Z</time>
      </trkpt>
      <trkpt lat="50.49682" lon="3.70027">
        <ele>77</ele>
        <time>2024-05-08T21:10:41Z</time>
      </trkpt>
      <trkpt lat="50.49708" lon="3.7009">
        <ele>75</ele>
        <time>2024-05-08T21:10:52Z</time>
      </trkpt>
      <trkpt lat="50.49739" lon="3.70066">
        <ele>76</ele>
        <time>2024-05-08T21:11:01Z</time>
      </trkpt>
      <trkpt lat="50.49783" lon="3.7004">
        <ele>75</ele>
        <time>2024-05-08T21:11:11Z</time>
      </trkpt>
      <trkpt lat="50.49893" lon="3.70002">
        <ele>68</ele>
        <time>2024-05-08T21:11:38Z</time>
      </trkpt>
      <trkpt lat="50.4996" lon="3.69979">
        <ele>62</ele>
        <time>2024-05-08T21:11:54Z</time>
      </trkpt>
      <trkpt lat="50.50032" lon="3.69962">
        <ele>59</ele>
        <time>2024-05-08T21:12:11Z</time>
      </trkpt>
      <trkpt lat="50.50108" lon="3.69944">
        <ele>56</ele>
        <time>2024-05-08T21:12:29Z</time>
      </trkpt>
      <trkpt lat="50.50182" lon="3.69927">
        <ele>52</ele>
        <time>2024-05-08T21:12:46Z</time>
      </trkpt>
      <trkpt lat="50.50211" lon="3.69923">
        <ele>53</ele>
        <time>2024-05-08T21:12:53Z</time>
      </trkpt>
      <trkpt lat="50.50225" lon="3.69924">
        <ele>53</ele>
        <time>2024-05-08T21:12:56Z</time>
      </trkpt>
      <trkpt lat="50.50246" lon="3.69916">
        <ele>53</ele>
        <time>2024-05-08T21:13:01Z</time>
      </trkpt>
      <trkpt lat="50.5025" lon="3.69984">
        <ele>56</ele>
        <time>2024-05-08T21:13:11Z</time>
      </trkpt>
      <trkpt lat="50.50252" lon="3.70035">
        <ele>57</ele>
        <time>2024-05-08T21:13:19Z</time>
      </trkpt>
      <trkpt lat="50.50259" lon="3.70087">
        <ele>56</ele>
        <time>2024-05-08T21:13:27Z</time>
      </trkpt>
      <trkpt lat="50.50266" lon="3.70212">
        <ele>54</ele>
        <time>2024-05-08T21:13:46Z</time>
      </trkpt>
      <trkpt lat="50.50257" lon="3.70247">
        <ele>55</ele>
        <time>2024-05-08T21:13:51Z</time>
      </trkpt>
      <trkpt lat="50.50259" lon="3.70286">
        <ele>54</ele>
        <time>2024-05-08T21:13:57Z</time>
      </trkpt>
      <trkpt lat="50.50273" lon="3.70309">
        <ele>54</ele>
        <time>2024-05-08T21:14:02Z</time>
      </trkpt>
      <trkpt lat="50.50275" lon="3.70365">
        <ele>54</ele>
        <time>2024-05-08T21:14:10Z</time>
      </trkpt>
      <trkpt lat="50.50231" lon="3.70422">
        <ele>55</ele>
        <time>2024-05-08T21:14:23Z</time>
      </trkpt>
      <trkpt lat="50.50182" lon="3.70433">
        <ele>56</ele>
        <time>2024-05-08T21:14:35Z</time>
      </trkpt>
      <trkpt lat="50.50193" lon="3.70574">
        <ele>58</ele>
        <time>2024-05-08T21:14:56Z</time>
      </trkpt>
      <trkpt lat="50.50195" lon="3.70581">
        <ele>58</ele>
        <time>2024-05-08T21:14:57Z</time>
      </trkpt>
      <trkpt lat="50.50199" lon="3.70665">
        <ele>59</ele>
        <time>2024-05-08T21:15:10Z</time>
      </trkpt>
      <trkpt lat="50.50204" lon="3.70719">
        <ele>59</ele>
        <time>2024-05-08T21:15:18Z</time>
      </trkpt>
      <trkpt lat="50.50211" lon="3.70796">
        <ele>59</ele>
        <time>2024-05-08T21:15:29Z</time>
      </trkpt>
      <trkpt lat="50.50218" lon="3.70882">
        <ele>59</ele>
        <time>2024-05-08T21:15:42Z</time>
      </trkpt>
      <trkpt lat="50.50219" lon="3.7096">
        <ele>59</ele>
        <time>2024-05-08T21:15:54Z</time>
      </trkpt>
      <trkpt lat="50.50214" lon="3.71035">
        <ele>60</ele>
        <time>2024-05-08T21:16:05Z</time>
      </trkpt>
      <trkpt lat="50.502" lon="3.71152">
        <ele>61</ele>
        <time>2024-05-08T21:16:23Z</time>
      </trkpt>
      <trkpt lat="50.50199" lon="3.71184">
        <ele>60</ele>
        <time>2024-05-08T21:16:27Z</time>
      </trkpt>
      <trkpt lat="50.50199" lon="3.71252">
        <ele>59</ele>
        <time>2024-05-08T21:16:38Z</time>
      </trkpt>
      <trkpt lat="50.50199" lon="3.71329">
        <ele>60</ele>
        <time>2024-05-08T21:16:49Z</time>
      </trkpt>
      <trkpt lat="50.50199" lon="3.71436">
        <ele>63</ele>
        <time>2024-05-08T21:17:05Z</time>
      </trkpt>
      <trkpt lat="50.50201" lon="3.71483">
        <ele>64</ele>
        <time>2024-05-08T21:17:12Z</time>
      </trkpt>
      <trkpt lat="50.50142" lon="3.71473">
        <ele>66</ele>
        <time>2024-05-08T21:17:26Z</time>
      </trkpt>
      <trkpt lat="50.50107" lon="3.71471">
        <ele>68</ele>
        <time>2024-05-08T21:17:34Z</time>
      </trkpt>
      <trkpt lat="50.50077" lon="3.71481">
        <ele>70</ele>
        <time>2024-05-08T21:17:41Z</time>
      </trkpt>
      <trkpt lat="50.50049" lon="3.71488">
        <ele>70</ele>
        <time>2024-05-08T21:17:48Z</time>
      </trkpt>
      <trkpt lat="50.50039" lon="3.71505">
        <ele>71</ele>
        <time>2024-05-08T21:17:51Z</time>
      </trkpt>
      <trkpt lat="50.49963" lon="3.71542">
        <ele>77</ele>
        <time>2024-05-08T21:18:10Z</time>
      </trkpt>
      <trkpt lat="50.49921" lon="3.71561">
        <ele>79</ele>
        <time>2024-05-08T21:18:20Z</time>
      </trkpt>
      <trkpt lat="50.49865" lon="3.71585">
        <ele>78</ele>
        <time>2024-05-08T21:18:34Z</time>
      </trkpt>
      <trkpt lat="50.49842" lon="3.71596">
        <ele>77</ele>
        <time>2024-05-08T21:18:39Z</time>
      </trkpt>
      <trkpt lat="50.49831" lon="3.71626">
        <ele>76</ele>
        <time>2024-05-08T21:18:44Z</time>
      </trkpt>
      <trkpt lat="50.49824" lon="3.71707">
        <ele>78</ele>
        <time>2024-05-08T21:18:56Z</time>
      </trkpt>
      <trkpt lat="50.49806" lon="3.71747">
        <ele>81</ele>
        <time>2024-05-08T21:19:04Z</time>
      </trkpt>
      <trkpt lat="50.4978" lon="3.71753">
        <ele>82</ele>
        <time>2024-05-08T21:19:10Z</time>
      </trkpt>
      <trkpt lat="50.4976" lon="3.71778">
        <ele>83</ele>
        <time>2024-05-08T21:19:16Z</time>
      </trkpt>
      <trkpt lat="50.4975" lon="3.71785">
        <ele>84</ele>
        <time>2024-05-08T21:19:18Z</time>
      </trkpt>
      <trkpt lat="50.4973" lon="3.71798">
        <ele>83</ele>
        <time>2024-05-08T21:19:23Z</time>
      </trkpt>
      <trkpt lat="50.49715" lon="3.71811">
        <ele>83</ele>
        <time>2024-05-08T21:19:27Z</time>
      </trkpt>
      <trkpt lat="50.4969" lon="3.71818">
        <ele>82</ele>
        <time>2024-05-08T21:19:33Z</time>
      </trkpt>
      <trkpt lat="50.49653" lon="3.71874">
        <ele>80</ele>
        <time>2024-05-08T21:19:45Z</time>
      </trkpt>
      <trkpt lat="50.49632" lon="3.71912">
        <ele>78</ele>
        <time>2024-05-08T21:19:53Z</time>
      </trkpt>
      <trkpt lat="50.49637" lon="3.71921">
        <ele>78</ele>
        <time>2024-05-08T21:19:55Z</time>
      </trkpt>
      <trkpt lat="50.4965" lon="3.71921">
        <ele>78</ele>
        <time>2024-05-08T21:19:58Z</time>
      </trkpt>
      <trkpt lat="50.49658" lon="3.71912">
        <ele>79</ele>
        <time>2024-05-08T21:20:00Z</time>
      </trkpt>
      <trkpt lat="50.49662" lon="3.71895">
        <ele>80</ele>
        <time>2024-05-08T21:20:03Z</time>
      </trkpt>
      <trkpt lat="50.49672" lon="3.71883">
        <ele>81</ele>
        <time>2024-05-08T21:20:06Z</time>
      </trkpt>
      <trkpt lat="50.49679" lon="3.71882">
        <ele>81</ele>
        <time>2024-05-08T21:20:07Z</time>
      </trkpt>
      <trkpt lat="50.49694" lon="3.71887">
        <ele>82</ele>
        <time>2024-05-08T21:20:11Z</time>
      </trkpt>
      <trkpt lat="50.49714" lon="3.719">
        <ele>83</ele>
        <time>2024-05-08T21:20:16Z</time>
      </trkpt>
      <trkpt lat="50.49723" lon="3.71912">
        <ele>83</ele>
        <time>2024-05-08T21:20:19Z</time>
      </trkpt>
      <trkpt lat="50.49751" lon="3.71948">
        <ele>81</ele>
        <time>2024-05-08T21:20:27Z</time>
      </trkpt>
      <trkpt lat="50.49751" lon="3.71957">
        <ele>81</ele>
        <time>2024-05-08T21:20:28Z</time>
      </trkpt>
      <trkpt lat="50.49763" lon="3.71982">
        <ele>79</ele>
        <time>2024-05-08T21:20:33Z</time>
      </trkpt>
      <trkpt lat="50.49761" lon="3.71993">
        <ele>79</ele>
        <time>2024-05-08T21:20:35Z</time>
      </trkpt>
      <trkpt lat="50.49761" lon="3.72013">
        <ele>77</ele>
        <time>2024-05-08T21:20:38Z</time>
      </trkpt>
      <trkpt lat="50.4978" lon="3.72052">
        <ele>78</ele>
        <time>2024-05-08T21:20:45Z</time>
      </trkpt>
      <trkpt lat="50.49784" lon="3.72074">
        <ele>77</ele>
        <time>2024-05-08T21:20:48Z</time>
      </trkpt>
      <trkpt lat="50.4979" lon="3.7211">
        <ele>77</ele>
        <time>2024-05-08T21:20:54Z</time>
      </trkpt>
      <trkpt lat="50.49785" lon="3.7213">
        <ele>76</ele>
        <time>2024-05-08T21:20:57Z</time>
      </trkpt>
      <trkpt lat="50.49789" lon="3.72145">
        <ele>76</ele>
        <time>2024-05-08T21:21:00Z</time>
      </trkpt>
      <trkpt lat="50.49806" lon="3.72152">
        <ele>77</ele>
        <time>2024-05-08T21:21:04Z</time>
      </trkpt>
      <trkpt lat="50.4983" lon="3.72153">
        <ele>79</ele>
        <time>2024-05-08T21:21:09Z</time>
      </trkpt>
      <trkpt lat="50.49844" lon="3.72174">
        <ele>79</ele>
        <time>2024-05-08T21:21:14Z</time>
      </trkpt>
      <trkpt lat="50.49848" lon="3.7221">
        <ele>78</ele>
        <time>2024-05-08T21:21:19Z</time>
      </trkpt>
      <trkpt lat="50.49845" lon="3.72225">
        <ele>77</ele>
        <time>2024-05-08T21:21:22Z</time>
      </trkpt>
      <trkpt lat="50.49837" lon="3.72249">
        <ele>76</ele>
        <time>2024-05-08T21:21:26Z</time>
      </trkpt>
      <trkpt lat="50.49857" lon="3.72271">
        <ele>76</ele>
        <time>2024-05-08T21:21:31Z</time>
      </trkpt>
      <trkpt lat="50.49867" lon="3.72283">
        <ele>76</ele>
        <time>2024-05-08T21:21:34Z</time>
      </trkpt>
      <trkpt lat="50.49876" lon="3.72314">
        <ele>76</ele>
        <time>2024-05-08T21:21:39Z</time>
      </trkpt>
      <trkpt lat="50.49885" lon="3.72329">
        <ele>76</ele>
        <time>2024-05-08T21:21:42Z</time>
      </trkpt>
      <trkpt lat="50.49898" lon="3.72334">
        <ele>76</ele>
        <time>2024-05-08T21:21:45Z</time>
      </trkpt>
      <trkpt lat="50.49871" lon="3.72399">
        <ele>74</ele>
        <time>2024-05-08T21:21:57Z</time>
      </trkpt>
      <trkpt lat="50.49834" lon="3.72422">
        <ele>72</ele>
        <time>2024-05-08T21:22:06Z</time>
      </trkpt>
      <trkpt lat="50.49845" lon="3.72489">
        <ele>71</ele>
        <time>2024-05-08T21:22:17Z</time>
      </trkpt>
      <trkpt lat="50.4992" lon="3.72619">
        <ele>75</ele>
        <time>2024-05-08T21:22:43Z</time>
      </trkpt>
      <trkpt lat="50.49982" lon="3.72727">
        <ele>76</ele>
        <time>2024-05-08T21:23:04Z</time>
      </trkpt>
      <trkpt lat="50.49996" lon="3.72753">
        <ele>76</ele>
        <time>2024-05-08T21:23:09Z</time>
      </trkpt>
      <trkpt lat="50.49995" lon="3.72734">
        <ele>76</ele>
        <time>2024-05-08T21:23:12Z</time>
      </trkpt>
      <trkpt lat="50.50008" lon="3.72707">
        <ele>78</ele>
        <time>2024-05-08T21:23:17Z</time>
      </trkpt>
      <trkpt lat="50.50013" lon="3.72669">
        <ele>79</ele>
        <time>2024-05-08T21:23:23Z</time>
      </trkpt>
      <trkpt lat="50.50027" lon="3.72642">
        <ele>81</ele>
        <time>2024-05-08T21:23:28Z</time>
      </trkpt>
      <trkpt lat="50.50057" lon="3.72599">
        <ele>83</ele>
        <time>2024-05-08T21:23:38Z</time>
      </trkpt>
      <trkpt lat="50.5002" lon="3.72538">
        <ele>81</ele>
        <time>2024-05-08T21:23:50Z</time>
      </trkpt>
      <trkpt lat="50.50003" lon="3.72511">
        <ele>79</ele>
        <time>2024-05-08T21:23:56Z</time>
      </trkpt>
      <trkpt lat="50.50005" lon="3.72468">
        <ele>79</ele>
        <time>2024-05-08T21:24:02Z</time>
      </trkpt>
      <trkpt lat="50.49987" lon="3.72448">
        <ele>79</ele>
        <time>2024-05-08T21:24:07Z</time>
      </trkpt>
      <trkpt lat="50.49981" lon="3.72416">
        <ele>79</ele>
        <time>2024-05-08T21:24:12Z</time>
      </trkpt>
      <trkpt lat="50.49988" lon="3.7238">
        <ele>79</ele>
        <time>2024-05-08T21:24:18Z</time>
      </trkpt>
      <trkpt lat="50.50008" lon="3.72345">
        <ele>81</ele>
        <time>2024-05-08T21:24:25Z</time>
      </trkpt>
      <trkpt lat="50.50005" lon="3.72318">
        <ele>82</ele>
        <time>2024-05-08T21:24:29Z</time>
      </trkpt>
      <trkpt lat="50.50013" lon="3.72312">
        <ele>82</ele>
        <time>2024-05-08T21:24:31Z</time>
      </trkpt>
      <trkpt lat="50.50022" lon="3.72326">
        <ele>83</ele>
        <time>2024-05-08T21:24:34Z</time>
      </trkpt>
      <trkpt lat="50.50022" lon="3.72349">
        <ele>82</ele>
        <time>2024-05-08T21:24:37Z</time>
      </trkpt>
      <trkpt lat="50.50025" lon="3.72357">
        <ele>82</ele>
        <time>2024-05-08T21:24:39Z</time>
      </trkpt>
      <trkpt lat="50.50026" lon="3.72369">
        <ele>82</ele>
        <time>2024-05-08T21:24:40Z</time>
      </trkpt>
      <trkpt lat="50.50017" lon="3.724">
        <ele>80</ele>
        <time>2024-05-08T21:24:46Z</time>
      </trkpt>
      <trkpt lat="50.50016" lon="3.72431">
        <ele>80</ele>
        <time>2024-05-08T21:24:50Z</time>
      </trkpt>
      <trkpt lat="50.50024" lon="3.72448">
        <ele>81</ele>
        <time>2024-05-08T21:24:53Z</time>
      </trkpt>
      <trkpt lat="50.50026" lon="3.72458">
        <ele>81</ele>
        <time>2024-05-08T21:24:55Z</time>
      </trkpt>
      <trkpt lat="50.50038" lon="3.7247">
        <ele>82</ele>
        <time>2024-05-08T21:24:58Z</time>
      </trkpt>
      <trkpt lat="50.50041" lon="3.72478">
        <ele>82</ele>
        <time>2024-05-08T21:25:00Z</time>
      </trkpt>
      <trkpt lat="50.50047" lon="3.72471">
        <ele>83</ele>
        <time>2024-05-08T21:25:01Z</time>
      </trkpt>
      <trkpt lat="50.50068" lon="3.72452">
        <ele>84</ele>
        <time>2024-05-08T21:25:07Z</time>
      </trkpt>
      <trkpt lat="50.50077" lon="3.72434">
        <ele>84</ele>
        <time>2024-05-08T21:25:10Z</time>
      </trkpt>
      <trkpt lat="50.50071" lon="3.72413">
        <ele>83</ele>
        <time>2024-05-08T21:25:14Z</time>
      </trkpt>
      <trkpt lat="50.50064" lon="3.72354">
        <ele>85</ele>
        <time>2024-05-08T21:25:23Z</time>
      </trkpt>
      <trkpt lat="50.50069" lon="3.72336">
        <ele>86</ele>
        <time>2024-05-08T21:25:26Z</time>
      </trkpt>
      <trkpt lat="50.50067" lon="3.72323">
        <ele>86</ele>
        <time>2024-05-08T21:25:28Z</time>
      </trkpt>
      <trkpt lat="50.50027" lon="3.72224">
        <ele>84</ele>
        <time>2024-05-08T21:25:45Z</time>
      </trkpt>
      <trkpt lat="50.50009" lon="3.72198">
        <ele>83</ele>
        <time>2024-05-08T21:25:51Z</time>
      </trkpt>
      <trkpt lat="50.49986" lon="3.72193">
        <ele>83</ele>
        <time>2024-05-08T21:25:56Z</time>
      </trkpt>
      <trkpt lat="50.49964" lon="3.72153">
        <ele>82</ele>
        <time>2024-05-08T21:26:04Z</time>
      </trkpt>
      <trkpt lat="50.49948" lon="3.7213">
        <ele>83</ele>
        <time>2024-05-08T21:26:09Z</time>
      </trkpt>
      <trkpt lat="50.49914" lon="3.72104">
        <ele>83</ele>
        <time>2024-05-08T21:26:18Z</time>
      </trkpt>
      <trkpt lat="50.49902" lon="3.72094">
        <ele>83</ele>
        <time>2024-05-08T21:26:21Z</time>
      </trkpt>
      <trkpt lat="50.49895" lon="3.72071">
        <ele>84</ele>
        <time>2024-05-08T21:26:25Z</time>
      </trkpt>
      <trkpt lat="50.49881" lon="3.72057">
        <ele>84</ele>
        <time>2024-05-08T21:26:29Z</time>
      </trkpt>
      <trkpt lat="50.49876" lon="3.72036">
        <ele>84</ele>
        <time>2024-05-08T21:26:32Z</time>
      </trkpt>
      <trkpt lat="50.49882" lon="3.71985">
        <ele>84</ele>
        <time>2024-05-08T21:26:40Z</time>
      </trkpt>
      <trkpt lat="50.49902" lon="3.71945">
        <ele>84</ele>
        <time>2024-05-08T21:26:47Z</time>
      </trkpt>
      <trkpt lat="50.49909" lon="3.71911">
        <ele>83</ele>
        <time>2024-05-08T21:26:53Z</time>
      </trkpt>
      <trkpt lat="50.49919" lon="3.71889">
        <ele>82</ele>
        <time>2024-05-08T21:26:57Z</time>
      </trkpt>
      <trkpt lat="50.49917" lon="3.71853">
        <ele>81</ele>
        <time>2024-05-08T21:27:02Z</time>
      </trkpt>
      <trkpt lat="50.49913" lon="3.7181">
        <ele>81</ele>
        <time>2024-05-08T21:27:08Z</time>
      </trkpt>
      <trkpt lat="50.49896" lon="3.7175">
        <ele>82</ele>
        <time>2024-05-08T21:27:18Z</time>
      </trkpt>
      <trkpt lat="50.49922" lon="3.71726">
        <ele>82</ele>
        <time>2024-05-08T21:27:25Z</time>
      </trkpt>
      <trkpt lat="50.4993" lon="3.71731">
        <ele>82</ele>
        <time>2024-05-08T21:27:27Z</time>
      </trkpt>
      <trkpt lat="50.49966" lon="3.71743">
        <ele>83</ele>
        <time>2024-05-08T21:27:36Z</time>
      </trkpt>
      <trkpt lat="50.49973" lon="3.71735">
        <ele>83</ele>
        <time>2024-05-08T21:27:38Z</time>
      </trkpt>
      <trkpt lat="50.49986" lon="3.71693">
        <ele>82</ele>
        <time>2024-05-08T21:27:45Z</time>
      </trkpt>
      <trkpt lat="50.49993" lon="3.71691">
        <ele>82</ele>
        <time>2024-05-08T21:27:47Z</time>
      </trkpt>
      <trkpt lat="50.50031" lon="3.71689">
        <ele>83</ele>
        <time>2024-05-08T21:27:55Z</time>
      </trkpt>
      <trkpt lat="50.50076" lon="3.71687">
        <ele>82</ele>
        <time>2024-05-08T21:28:06Z</time>
      </trkpt>
      <trkpt lat="50.50117" lon="3.71686">
        <ele>81</ele>
        <time>2024-05-08T21:28:15Z</time>
      </trkpt>
      <trkpt lat="50.50133" lon="3.71695">
        <ele>81</ele>
        <time>2024-05-08T21:28:19Z</time>
      </trkpt>
      <trkpt lat="50.50134" lon="3.71814">
        <ele>82</ele>
        <time>2024-05-08T21:28:37Z</time>
      </trkpt>
      <trkpt lat="50.50146" lon="3.71831">
        <ele>81</ele>
        <time>2024-05-08T21:28:41Z</time>
      </trkpt>
      <trkpt lat="50.50146" lon="3.71852">
        <ele>80</ele>
        <time>2024-05-08T21:28:44Z</time>
      </trkpt>
      <trkpt lat="50.50174" lon="3.71854">
        <ele>78</ele>
        <time>2024-05-08T21:28:51Z</time>
      </trkpt>
      <trkpt lat="50.50196" lon="3.71863">
        <ele>76</ele>
        <time>2024-05-08T21:28:56Z</time>
      </trkpt>
      <trkpt lat="50.50242" lon="3.71955">
        <ele>72</ele>
        <time>2024-05-08T21:29:13Z</time>
      </trkpt>
      <trkpt lat="50.50276" lon="3.72026">
        <ele>70</ele>
        <time>2024-05-08T21:29:26Z</time>
      </trkpt>
      <trkpt lat="50.50319" lon="3.72111">
        <ele>67</ele>
        <time>2024-05-08T21:29:43Z</time>
      </trkpt>
      <trkpt lat="50.50306" lon="3.72135">
        <ele>67</ele>
        <time>2024-05-08T21:29:47Z</time>
      </trkpt>
      <trkpt lat="50.50256" lon="3.72161">
        <ele>70</ele>
        <time>2024-05-08T21:30:00Z</time>
      </trkpt>
      <trkpt lat="50.50214" lon="3.7218">
        <ele>75</ele>
        <time>2024-05-08T21:30:10Z</time>
      </trkpt>
      <trkpt lat="50.50201" lon="3.72194">
        <ele>78</ele>
        <time>2024-05-08T21:30:13Z</time>
      </trkpt>
      <trkpt lat="50.50201" lon="3.72224">
        <ele>79</ele>
        <time>2024-05-08T21:30:18Z</time>
      </trkpt>
      <trkpt lat="50.50243" lon="3.72318">
        <ele>79</ele>
        <time>2024-05-08T21:30:35Z</time>
      </trkpt>
      <trkpt lat="50.5033" lon="3.72408">
        <ele>76</ele>
        <time>2024-05-08T21:30:59Z</time>
      </trkpt>
      <trkpt lat="50.50369" lon="3.72459">
        <ele>75</ele>
        <time>2024-05-08T21:31:11Z</time>
      </trkpt>
      <trkpt lat="50.50264" lon="3.72419">
        <ele>84</ele>
        <time>2024-05-08T21:31:36Z</time>
      </trkpt>
      <trkpt lat="50.50223" lon="3.72395">
        <ele>85</ele>
        <time>2024-05-08T21:31:47Z</time>
      </trkpt>
      <trkpt lat="50.50164" lon="3.72319">
        <ele>86</ele>
        <time>2024-05-08T21:32:04Z</time>
      </trkpt>
      <trkpt lat="50.50192" lon="3.72454">
        <ele>87</ele>
        <time>2024-05-08T21:32:25Z</time>
      </trkpt>
      <trkpt lat="50.50211" lon="3.72509">
        <ele>87</ele>
        <time>2024-05-08T21:32:35Z</time>
      </trkpt>
      <trkpt lat="50.50236" lon="3.72585">
        <ele>87</ele>
        <time>2024-05-08T21:32:47Z</time>
      </trkpt>
      <trkpt lat="50.50191" lon="3.72647">
        <ele>88</ele>
        <time>2024-05-08T21:33:01Z</time>
      </trkpt>
      <trkpt lat="50.50158" lon="3.72693">
        <ele>88</ele>
        <time>2024-05-08T21:33:12Z</time>
      </trkpt>
      <trkpt lat="50.50103" lon="3.72771">
        <ele>85</ele>
        <time>2024-05-08T21:33:29Z</time>
      </trkpt>
      <trkpt lat="50.50047" lon="3.72847">
        <ele>78</ele>
        <time>2024-05-08T21:33:46Z</time>
      </trkpt>
      <trkpt lat="50.50003" lon="3.7291">
        <ele>79</ele>
        <time>2024-05-08T21:34:00Z</time>
      </trkpt>
      <trkpt lat="50.49934" lon="3.73009">
        <ele>82</ele>
        <time>2024-05-08T21:34:22Z</time>
      </trkpt>
      <trkpt lat="50.49923" lon="3.73029">
        <ele>82</ele>
        <time>2024-05-08T21:34:26Z</time>
      </trkpt>
      <trkpt lat="50.49835" lon="3.73014">
        <ele>78</ele>
        <time>2024-05-08T21:34:47Z</time>
      </trkpt>
      <trkpt lat="50.49774" lon="3.73005">
        <ele>78</ele>
        <time>2024-05-08T21:35:01Z</time>
      </trkpt>
      <trkpt lat="50.49663" lon="3.7299">
        <ele>76</ele>
        <time>2024-05-08T21:35:27Z</time>
      </trkpt>
      <trkpt lat="50.49538" lon="3.72971">
        <ele>75</ele>
        <time>2024-05-08T21:35:56Z</time>
      </trkpt>
      <trkpt lat="50.49459" lon="3.72959">
        <ele>75</ele>
        <time>2024-05-08T21:36:15Z</time>
      </trkpt>
      <trkpt lat="50.49301" lon="3.72935">
        <ele>74</ele>
        <time>2024-05-08T21:36:52Z</time>
      </trkpt>
      <trkpt lat="50.49203" lon="3.7292">
        <ele>73</ele>
        <time>2024-05-08T21:37:15Z</time>
      </trkpt>
      <trkpt lat="50.49112" lon="3.72907">
        <ele>75</ele>
        <time>2024-05-08T21:37:36Z</time>
      </trkpt>
      <trkpt lat="50.48967" lon="3.72884">
        <ele>69</ele>
        <time>2024-05-08T21:38:10Z</time>
      </trkpt>
      <trkpt lat="50.48882" lon="3.7271">
        <ele>65</ele>
        <time>2024-05-08T21:38:43Z</time>
      </trkpt>
      <trkpt lat="50.48815" lon="3.72571">
        <ele>66</ele>
        <time>2024-05-08T21:39:09Z</time>
      </trkpt>
      <trkpt lat="50.48786" lon="3.7242">
        <ele>61</ele>
        <time>2024-05-08T21:39:32Z</time>
      </trkpt>
      <trkpt lat="50.48774" lon="3.72367">
        <ele>62</ele>
        <time>2024-05-08T21:39:41Z</time>
      </trkpt>
      <trkpt lat="50.4875" lon="3.72241">
        <ele>64</ele>
        <time>2024-05-08T21:40:00Z</time>
      </trkpt>
      <trkpt lat="50.48733" lon="3.72154">
        <ele>65</ele>
        <time>2024-05-08T21:40:14Z</time>
      </trkpt>
      <trkpt lat="50.4872" lon="3.72095">
        <ele>62</ele>
        <time>2024-05-08T21:40:23Z</time>
      </trkpt>
      <trkpt lat="50.48699" lon="3.71983">
        <ele>62</ele>
        <time>2024-05-08T21:40:40Z</time>
      </trkpt>
      <trkpt lat="50.48689" lon="3.71933">
        <ele>64</ele>
        <time>2024-05-08T21:40:48Z</time>
      </trkpt>
      <trkpt lat="50.48687" lon="3.71903">
        <ele>65</ele>
        <time>2024-05-08T21:40:53Z</time>
      </trkpt>
      <trkpt lat="50.48681" lon="3.71885">
        <ele>66</ele>
        <time>2024-05-08T21:40:56Z</time>
      </trkpt>
      <trkpt lat="50.48678" lon="3.71862">
        <ele>67</ele>
        <time>2024-05-08T21:40:59Z</time>
      </trkpt>
      <trkpt lat="50.48797" lon="3.71867">
        <ele>68</ele>
        <time>2024-05-08T21:41:27Z</time>
      </trkpt>
      <trkpt lat="50.48859" lon="3.71869">
        <ele>67</ele>
        <time>2024-05-08T21:41:41Z</time>
      </trkpt>
      <trkpt lat="50.48946" lon="3.7187">
        <ele>69</ele>
        <time>2024-05-08T21:42:02Z</time>
      </trkpt>
      <trkpt lat="50.48991" lon="3.71874">
        <ele>68</ele>
        <time>2024-05-08T21:42:12Z</time>
      </trkpt>
      <trkpt lat="50.4907" lon="3.71875">
        <ele>67</ele>
        <time>2024-05-08T21:42:31Z</time>
      </trkpt>
      <trkpt lat="50.49097" lon="3.71876">
        <ele>68</ele>
        <time>2024-05-08T21:42:37Z</time>
      </trkpt>
      <trkpt lat="50.49185" lon="3.71879">
        <ele>78</ele>
        <time>2024-05-08T21:42:57Z</time>
      </trkpt>
      <trkpt lat="50.49184" lon="3.7174">
        <ele>78</ele>
        <time>2024-05-08T21:43:18Z</time>
      </trkpt>
      <trkpt lat="50.49191" lon="3.71622">
        <ele>73</ele>
        <time>2024-05-08T21:43:36Z</time>
      </trkpt>
      <trkpt lat="50.49202" lon="3.7158">
        <ele>71</ele>
        <time>2024-05-08T21:43:42Z</time>
      </trkpt>
      <trkpt lat="50.4922" lon="3.71549">
        <ele>71</ele>
        <time>2024-05-08T21:43:49Z</time>
      </trkpt>
      <trkpt lat="50.49216" lon="3.71467">
        <ele>67</ele>
        <time>2024-05-08T21:44:01Z</time>
      </trkpt>
      <trkpt lat="50.49212" lon="3.71393">
        <ele>63</ele>
        <time>2024-05-08T21:44:12Z</time>
      </trkpt>
      <trkpt lat="50.49224" lon="3.71413">
        <ele>65</ele>
        <time>2024-05-08T21:44:16Z</time>
      </trkpt>
      <trkpt lat="50.49236" lon="3.7144">
        <ele>67</ele>
        <time>2024-05-08T21:44:21Z</time>
      </trkpt>
      <trkpt lat="50.49269" lon="3.71462">
        <ele>69</ele>
        <time>2024-05-08T21:44:29Z</time>
      </trkpt>
      <trkpt lat="50.49302" lon="3.71473">
        <ele>71</ele>
        <time>2024-05-08T21:44:37Z</time>
      </trkpt>
      <trkpt lat="50.49349" lon="3.7148">
        <ele>73</ele>
        <time>2024-05-08T21:44:48Z</time>
      </trkpt>
      <trkpt lat="50.49378" lon="3.71491">
        <ele>75</ele>
        <time>2024-05-08T21:44:55Z</time>
      </trkpt>
      <trkpt lat="50.4941" lon="3.71518">
        <ele>76</ele>
        <time>2024-05-08T21:45:04Z</time>
      </trkpt>
      <trkpt lat="50.49414" lon="3.71534">
        <ele>76</ele>
        <time>2024-05-08T21:45:06Z</time>
      </trkpt>
      <trkpt lat="50.4942" lon="3.71558">
        <ele>75</ele>
        <time>2024-05-08T21:45:10Z</time>
      </trkpt>
      <trkpt lat="50.49418" lon="3.71579">
        <ele>75</ele>
        <time>2024-05-08T21:45:13Z</time>
      </trkpt>
      <trkpt lat="50.49416" lon="3.71598">
        <ele>75</ele>
        <time>2024-05-08T21:45:16Z</time>
      </trkpt>
      <trkpt lat="50.49427" lon="3.71571">
        <ele>75</ele>
        <time>2024-05-08T21:45:21Z</time>
      </trkpt>
      <trkpt lat="50.49431" lon="3.71522">
        <ele>75</ele>
        <time>2024-05-08T21:45:28Z</time>
      </trkpt>
      <trkpt lat="50.49433" lon="3.71486">
        <ele>75</ele>
        <time>2024-05-08T21:45:34Z</time>
      </trkpt>
      <trkpt lat="50.49441" lon="3.71364">
        <ele>75</ele>
        <time>2024-05-08T21:45:52Z</time>
      </trkpt>
      <trkpt lat="50.4945" lon="3.71286">
        <ele>74</ele>
        <time>2024-05-08T21:46:04Z</time>
      </trkpt>
      <trkpt lat="50.49475" lon="3.71238">
        <ele>72</ele>
        <time>2024-05-08T21:46:13Z</time>
      </trkpt>
      <trkpt lat="50.49483" lon="3.7123">
        <ele>72</ele>
        <time>2024-05-08T21:46:15Z</time>
      </trkpt>
      <trkpt lat="50.49515" lon="3.71367">
        <ele>72</ele>
        <time>2024-05-08T21:46:37Z</time>
      </trkpt>
      <trkpt lat="50.49542" lon="3.71467">
        <ele>70</ele>
        <time>2024-05-08T21:46:53Z</time>
      </trkpt>
      <trkpt lat="50.49559" lon="3.71537">
        <ele>72</ele>
        <time>2024-05-08T21:47:04Z</time>
      </trkpt>
      <trkpt lat="50.49573" lon="3.71505">
        <ele>70</ele>
        <time>2024-05-08T21:47:10Z</time>
      </trkpt>
      <trkpt lat="50.49598" lon="3.7145">
        <ele>68</ele>
        <time>2024-05-08T21:47:20Z</time>
      </trkpt>
      <trkpt lat="50.4967" lon="3.71294">
        <ele>66</ele>
        <time>2024-05-08T21:47:48Z</time>
      </trkpt>
      <trkpt lat="50.49681" lon="3.7127">
        <ele>66</ele>
        <time>2024-05-08T21:47:53Z</time>
      </trkpt>
      <trkpt lat="50.49673" lon="3.71259">
        <ele>66</ele>
        <time>2024-05-08T21:47:55Z</time>
      </trkpt>
      <trkpt lat="50.49684" lon="3.71266">
        <ele>66</ele>
        <time>2024-05-08T21:47:58Z</time>
      </trkpt>
      <trkpt lat="50.49696" lon="3.7124">
        <ele>67</ele>
        <time>2024-05-08T21:48:03Z</time>
      </trkpt>
      <trkpt lat="50.49744" lon="3.71134">
        <ele>69</ele>
        <time>2024-05-08T21:48:22Z</time>
      </trkpt>
      <trkpt lat="50.498" lon="3.7101">
        <ele>69</ele>
        <time>2024-05-08T21:48:45Z</time>
      </trkpt>
      <trkpt lat="50.49718" lon="3.70928">
        <ele>69</ele>
        <time>2024-05-08T21:49:07Z</time>
      </trkpt>
      <trkpt lat="50.49671" lon="3.70894">
        <ele>69</ele>
        <time>2024-05-08T21:49:19Z</time>
      </trkpt>
      <trkpt lat="50.49504" lon="3.70795">
        <ele>66</ele>
        <time>2024-05-08T21:50:01Z</time>
      </trkpt>
      <trkpt lat="50.49472" lon="3.70851">
        <ele>65</ele>
        <time>2024-05-08T21:50:12Z</time>
      </trkpt>
      <trkpt lat="50.49413" lon="3.70951">
        <ele>66</ele>
        <time>2024-05-08T21:50:33Z</time>
      </trkpt>
      <trkpt lat="50.49383" lon="3.70984">
        <ele>64</ele>
        <time>2024-05-08T21:50:41Z</time>
      </trkpt>
      <trkpt lat="50.49345" lon="3.71011">
        <ele>62</ele>
        <time>2024-05-08T21:50:51Z</time>
      </trkpt>
      <trkpt lat="50.4932" lon="3.71011">
        <ele>60</ele>
        <time>2024-05-08T21:50:57Z</time>
      </trkpt>
      <trkpt lat="50.49301" lon="3.71001">
        <ele>58</ele>
        <time>2024-05-08T21:51:01Z</time>
      </trkpt>
      <trkpt lat="50.49266" lon="3.7099">
        <ele>56</ele>
        <time>2024-05-08T21:51:10Z</time>
      </trkpt>
      <trkpt lat="50.49241" lon="3.7097">
        <ele>56</ele>
        <time>2024-05-08T21:51:16Z</time>
      </trkpt>
      <trkpt lat="50.49225" lon="3.70912">
        <ele>59</ele>
        <time>2024-05-08T21:51:26Z</time>
      </trkpt>
      <trkpt lat="50.49215" lon="3.70902">
        <ele>59</ele>
        <time>2024-05-08T21:51:28Z</time>
      </trkpt>
      <trkpt lat="50.49178" lon="3.70842">
        <ele>58</ele>
        <time>2024-05-08T21:51:41Z</time>
      </trkpt>
      <trkpt lat="50.49171" lon="3.70723">
        <ele>62</ele>
        <time>2024-05-08T21:51:59Z</time>
      </trkpt>
      <trkpt lat="50.49163" lon="3.70592">
        <ele>63</ele>
        <time>2024-05-08T21:52:18Z</time>
      </trkpt>
      <trkpt lat="50.49159" lon="3.70523">
        <ele>62</ele>
        <time>2024-05-08T21:52:28Z</time>
      </trkpt>
      <trkpt lat="50.49147" lon="3.70513">
        <ele>61</ele>
        <time>2024-05-08T21:52:32Z</time>
      </trkpt>
      <trkpt lat="50.4912" lon="3.70491">
        <ele>60</ele>
        <time>2024-05-08T21:52:39Z</time>
      </trkpt>
      <trkpt lat="50.49059" lon="3.70444">
        <ele>60</ele>
        <time>2024-05-08T21:52:55Z</time>
      </trkpt>
      <trkpt lat="50.4903" lon="3.7042">
        <ele>59</ele>
        <time>2024-05-08T21:53:02Z</time>
      </trkpt>
      <trkpt lat="50.48956" lon="3.7037">
        <ele>54</ele>
        <time>2024-05-08T21:53:21Z</time>
      </trkpt>
      <trkpt lat="50.48933" lon="3.70356">
        <ele>52</ele>
        <time>2024-05-08T21:53:27Z</time>
      </trkpt>
      <trkpt lat="50.48896" lon="3.70341">
        <ele>50</ele>
        <time>2024-05-08T21:53:36Z</time>
      </trkpt>
      <trkpt lat="50.48855" lon="3.70317">
        <ele>50</ele>
        <time>2024-05-08T21:53:46Z</time>
      </trkpt>
      <trkpt lat="50.48808" lon="3.70286">
        <ele>48</ele>
        <time>2024-05-08T21:53:58Z</time>
      </trkpt>
      <trkpt lat="50.48776" lon="3.70264">
        <ele>46</ele>
        <time>2024-05-08T21:54:06Z</time>
      </trkpt>
      <trkpt lat="50.48744" lon="3.70242">
        <ele>44</ele>
        <time>2024-05-08T21:54:14Z</time>
      </trkpt>
      <trkpt lat="50.48711" lon="3.70222">
        <ele>43</ele>
        <time>2024-05-08T21:54:22Z</time>
      </trkpt>
      <trkpt lat="50.48659" lon="3.70182">
        <ele>42</ele>
        <time>2024-05-08T21:54:36Z</time>
      </trkpt>
      <trkpt lat="50.48611" lon="3.70138">
        <ele>40</ele>
        <time>2024-05-08T21:54:49Z</time>
      </trkpt>
      <trkpt lat="50.48526" lon="3.70067">
        <ele>40</ele>
        <time>2024-05-08T21:55:11Z</time>
      </trkpt>
      <trkpt lat="50.48519" lon="3.70093">
        <ele>40</ele>
        <time>2024-05-08T21:55:16Z</time>
      </trkpt>
      <trkpt lat="50.48522" lon="3.70117">
        <ele>39</ele>
        <time>2024-05-08T21:55:19Z</time>
      </trkpt>
      <trkpt lat="50.48484" lon="3.70238">
        <ele>37</ele>
        <time>2024-05-08T21:55:39Z</time>
      </trkpt>
      <trkpt lat="50.48461" lon="3.70288">
        <ele>37</ele>
        <time>2024-05-08T21:55:48Z</time>
      </trkpt>
      <trkpt lat="50.48433" lon="3.70363">
        <ele>37</ele>
        <time>2024-05-08T21:56:01Z</time>
      </trkpt>
      <trkpt lat="50.48414" lon="3.70413">
        <ele>36</ele>
        <time>2024-05-08T21:56:10Z</time>
      </trkpt>
      <trkpt lat="50.48381" lon="3.705">
        <ele>35</ele>
        <time>2024-05-08T21:56:25Z</time>
      </trkpt>
      <trkpt lat="50.48339" lon="3.70605">
        <ele>35</ele>
        <time>2024-05-08T21:56:44Z</time>
      </trkpt>
      <trkpt lat="50.48316" lon="3.70577">
        <ele>33</ele>
        <time>2024-05-08T21:56:50Z</time>
      </trkpt>
      <trkpt lat="50.48272" lon="3.70526">
        <ele>33</ele>
        <time>2024-05-08T21:57:03Z</time>
      </trkpt>
      <trkpt lat="50.48197" lon="3.70439">
        <ele>31</ele>
        <time>2024-05-08T21:57:25Z</time>
      </trkpt>
      <trkpt lat="50.4811" lon="3.70341">
        <ele>29</ele>
        <time>2024-05-08T21:57:50Z</time>
      </trkpt>
      <trkpt lat="50.4802" lon="3.70292">
        <ele>29</ele>
        <time>2024-05-08T21:58:12Z</time>
      </trkpt>
      <trkpt lat="50.47995" lon="3.7031">
        <ele>29</ele>
        <time>2024-05-08T21:58:19Z</time>
      </trkpt>
      <trkpt lat="50.47984" lon="3.70313">
        <ele>30</ele>
        <time>2024-05-08T21:58:21Z</time>
      </trkpt>
      <trkpt lat="50.47978" lon="3.703">
        <ele>30</ele>
        <time>2024-05-08T21:58:24Z</time>
      </trkpt>
      <trkpt lat="50.47954" lon="3.70347">
        <ele>31</ele>
        <time>2024-05-08T21:58:32Z</time>
      </trkpt>
      <trkpt lat="50.47961" lon="3.70419">
        <ele>34</ele>
        <time>2024-05-08T21:58:43Z</time>
      </trkpt>
      <trkpt lat="50.4801" lon="3.70478">
        <ele>37</ele>
        <time>2024-05-08T21:58:58Z</time>
      </trkpt>
      <trkpt lat="50.48042" lon="3.70531">
        <ele>38</ele>
        <time>2024-05-08T21:59:09Z</time>
      </trkpt>
      <trkpt lat="50.48063" lon="3.70682">
        <ele>45</ele>
        <time>2024-05-08T21:59:32Z</time>
      </trkpt>
      <trkpt lat="50.48075" lon="3.70775">
        <ele>45</ele>
        <time>2024-05-08T21:59:46Z</time>
      </trkpt>
      <trkpt lat="50.48076" lon="3.70833">
        <ele>43</ele>
        <time>2024-05-08T21:59:54Z</time>
      </trkpt>
      <trkpt lat="50.48085" lon="3.70993">
        <ele>36</ele>
        <time>2024-05-08T22:00:18Z</time>
      </trkpt>
      <trkpt lat="50.48051" lon="3.71035">
        <ele>37</ele>
        <time>2024-05-08T22:00:28Z</time>
      </trkpt>
      <trkpt lat="50.48042" lon="3.71047">
        <ele>37</ele>
        <time>2024-05-08T22:00:31Z</time>
      </trkpt>
      <trkpt lat="50.48015" lon="3.71021">
        <ele>37</ele>
        <time>2024-05-08T22:00:38Z</time>
      </trkpt>
      <trkpt lat="50.47967" lon="3.70971">
        <ele>36</ele>
        <time>2024-05-08T22:00:52Z</time>
      </trkpt>
      <trkpt lat="50.47943" lon="3.70951">
        <ele>36</ele>
        <time>2024-05-08T22:00:58Z</time>
      </trkpt>
      <trkpt lat="50.47933" lon="3.70945">
        <ele>36</ele>
        <time>2024-05-08T22:01:01Z</time>
      </trkpt>
      <trkpt lat="50.47919" lon="3.70947">
        <ele>36</ele>
        <time>2024-05-08T22:01:04Z</time>
      </trkpt>
      <trkpt lat="50.47898" lon="3.70959">
        <ele>34</ele>
        <time>2024-05-08T22:01:09Z</time>
      </trkpt>
      <trkpt lat="50.47845" lon="3.70993">
        <ele>31</ele>
        <time>2024-05-08T22:01:23Z</time>
      </trkpt>
      <trkpt lat="50.47798" lon="3.71019">
        <ele>31</ele>
        <time>2024-05-08T22:01:34Z</time>
      </trkpt>
      <trkpt lat="50.47779" lon="3.71007">
        <ele>30</ele>
        <time>2024-05-08T22:01:39Z</time>
      </trkpt>
      <trkpt lat="50.47723" lon="3.7095">
        <ele>29</ele>
        <time>2024-05-08T22:01:55Z</time>
      </trkpt>
      <trkpt lat="50.4767" lon="3.70897">
        <ele>29</ele>
        <time>2024-05-08T22:02:09Z</time>
      </trkpt>
      <trkpt lat="50.47649" lon="3.70874">
        <ele>29</ele>
        <time>2024-05-08T22:02:15Z</time>
      </trkpt>
      <trkpt lat="50.47633" lon="3.70871">
        <ele>28</ele>
        <time>2024-05-08T22:02:19Z</time>
      </trkpt>
      <trkpt lat="50.47602" lon="3.70886">
        <ele>27</ele>
        <time>2024-05-08T22:02:27Z</time>
      </trkpt>
      <trkpt lat="50.47598" lon="3.70861">
        <ele>27</ele>
        <time>2024-05-08T22:02:30Z</time>
      </trkpt>
      <trkpt lat="50.4759" lon="3.70848">
        <ele>27</ele>
        <time>2024-05-08T22:02:33Z</time>
      </trkpt>
      <trkpt lat="50.47578" lon="3.70847">
        <ele>27</ele>
        <time>2024-05-08T22:02:36Z</time>
      </trkpt>
      <trkpt lat="50.47568" lon="3.70855">
        <ele>26</ele>
        <time>2024-05-08T22:02:38Z</time>
      </trkpt>
      <trkpt lat="50.47509" lon="3.70957">
        <ele>23</ele>
        <time>2024-05-08T22:02:59Z</time>
      </trkpt>
      <trkpt lat="50.475" lon="3.70963">
        <ele>23</ele>
        <time>2024-05-08T22:03:01Z</time>
      </trkpt>
      <trkpt lat="50.47491" lon="3.70961">
        <ele>22</ele>
        <time>2024-05-08T22:03:03Z</time>
      </trkpt>
      <trkpt lat="50.47471" lon="3.70932">
        <ele>21</ele>
        <time>2024-05-08T22:03:10Z</time>
      </trkpt>
      <trkpt lat="50.47469" lon="3.70902">
        <ele>21</ele>
        <time>2024-05-08T22:03:14Z</time>
      </trkpt>
      <trkpt lat="50.47498" lon="3.70871">
        <ele>23</ele>
        <time>2024-05-08T22:03:22Z</time>
      </trkpt>
      <trkpt lat="50.47494" lon="3.70842">
        <ele>23</ele>
        <time>2024-05-08T22:03:27Z</time>
      </trkpt>
      <trkpt lat="50.47508" lon="3.70792">
        <ele>24</ele>
        <time>2024-05-08T22:03:35Z</time>
      </trkpt>
      <trkpt lat="50.47527" lon="3.70765">
        <ele>24</ele>
        <time>2024-05-08T22:03:41Z</time>
      </trkpt>
      <trkpt lat="50.47539" lon="3.70731">
        <ele>24</ele>
        <time>2024-05-08T22:03:47Z</time>
      </trkpt>
      <trkpt lat="50.47549" lon="3.70734">
        <ele>24</ele>
        <time>2024-05-08T22:03:49Z</time>
      </trkpt>
      <trkpt lat="50.4759" lon="3.70702">
        <ele>25</ele>
        <time>2024-05-08T22:04:00Z</time>
      </trkpt>
      <trkpt lat="50.47636" lon="3.70665">
        <ele>25</ele>
        <time>2024-05-08T22:04:12Z</time>
      </trkpt>
      <trkpt lat="50.477" lon="3.70609">
        <ele>27</ele>
        <time>2024-05-08T22:04:29Z</time>
      </trkpt>
      <trkpt lat="50.47735" lon="3.70561">
        <ele>28</ele>
        <time>2024-05-08T22:04:40Z</time>
      </trkpt>
      <trkpt lat="50.47824" lon="3.70438">
        <ele>30</ele>
        <time>2024-05-08T22:05:07Z</time>
      </trkpt>
      <trkpt lat="50.47898" lon="3.70333">
        <ele>32</ele>
        <time>2024-05-08T22:05:31Z</time>
      </trkpt>
      <trkpt lat="50.47935" lon="3.7027">
        <ele>29</ele>
        <time>2024-05-08T22:05:43Z</time>
      </trkpt>
      <trkpt lat="50.4798" lon="3.70209">
        <ele>29</ele>
        <time>2024-05-08T22:05:57Z</time>
      </trkpt>
      <trkpt lat="50.48025" lon="3.70142">
        <ele>30</ele>
        <time>2024-05-08T22:06:12Z</time>
      </trkpt>
      <trkpt lat="50.48014" lon="3.70097">
        <ele>30</ele>
        <time>2024-05-08T22:06:19Z</time>
      </trkpt>
      <trkpt lat="50.48005" lon="3.70049">
        <ele>29</ele>
        <time>2024-05-08T22:06:26Z</time>
      </trkpt>
      <trkpt lat="50.47997" lon="3.69982">
        <ele>27</ele>
        <time>2024-05-08T22:06:37Z</time>
      </trkpt>
      <trkpt lat="50.47996" lon="3.69956">
        <ele>27</ele>
        <time>2024-05-08T22:06:40Z</time>
      </trkpt>
      <trkpt lat="50.48002" lon="3.69894">
        <ele>27</ele>
        <time>2024-05-08T22:06:50Z</time>
      </trkpt>
      <trkpt lat="50.48012" lon="3.698">
        <ele>27</ele>
        <time>2024-05-08T22:07:04Z</time>
      </trkpt>
      <trkpt lat="50.48022" lon="3.69741">
        <ele>29</ele>
        <time>2024-05-08T22:07:13Z</time>
      </trkpt>
      <trkpt lat="50.48023" lon="3.69715">
        <ele>29</ele>
        <time>2024-05-08T22:07:17Z</time>
      </trkpt>
      <trkpt lat="50.48015" lon="3.69679">
        <ele>30</ele>
        <time>2024-05-08T22:07:23Z</time>
      </trkpt>
      <trkpt lat="50.47978" lon="3.696">
        <ele>30</ele>
        <time>2024-05-08T22:07:37Z</time>
      </trkpt>
      <trkpt lat="50.47968" lon="3.69623">
        <ele>29</ele>
        <time>2024-05-08T22:07:41Z</time>
      </trkpt>
      <trkpt lat="50.47926" lon="3.6957">
        <ele>28</ele>
        <time>2024-05-08T22:07:54Z</time>
      </trkpt>
      <trkpt lat="50.47891" lon="3.69502">
        <ele>26</ele>
        <time>2024-05-08T22:08:07Z</time>
      </trkpt>
      <trkpt lat="50.47859" lon="3.69474">
        <ele>26</ele>
        <time>2024-05-08T22:08:15Z</time>
      </trkpt>
      <trkpt lat="50.47831" lon="3.69459">
        <ele>26</ele>
        <time>2024-05-08T22:08:22Z</time>
      </trkpt>
      <trkpt lat="50.47826" lon="3.69452">
        <ele>26</ele>
        <time>2024-05-08T22:08:24Z</time>
      </trkpt>
      <trkpt lat="50.47824" lon="3.69374">
        <ele>26</ele>
        <time>2024-05-08T22:08:35Z</time>
      </trkpt>
      <trkpt lat="50.47706" lon="3.69405">
        <ele>25</ele>
        <time>2024-05-08T22:09:03Z</time>
      </trkpt>
      <trkpt lat="50.47618" lon="3.69406">
        <ele>24</ele>
        <time>2024-05-08T22:09:24Z</time>
      </trkpt>
      <trkpt lat="50.47611" lon="3.69317">
        <ele>23</ele>
        <time>2024-05-08T22:09:37Z</time>
      </trkpt>
      <trkpt lat="50.47582" lon="3.69201">
        <ele>21</ele>
        <time>2024-05-08T22:09:56Z</time>
      </trkpt>
      <trkpt lat="50.47563" lon="3.69171">
        <ele>21</ele>
        <time>2024-05-08T22:10:02Z</time>
      </trkpt>
      <trkpt lat="50.47549" lon="3.69189">
        <ele>22</ele>
        <time>2024-05-08T22:10:06Z</time>
      </trkpt>
      <trkpt lat="50.47532" lon="3.69188">
        <ele>22</ele>
        <time>2024-05-08T22:10:10Z</time>
      </trkpt>
      <trkpt lat="50.47515" lon="3.69162">
        <ele>22</ele>
        <time>2024-05-08T22:10:16Z</time>
      </trkpt>
      <trkpt lat="50.47494" lon="3.69091">
        <ele>22</ele>
        <time>2024-05-08T22:10:27Z</time>
      </trkpt>
      <trkpt lat="50.47386" lon="3.68996">
        <ele>21</ele>
        <time>2024-05-08T22:10:56Z</time>
      </trkpt>
      <trkpt lat="50.47255" lon="3.689">
        <ele>18</ele>
        <time>2024-05-08T22:11:30Z</time>
      </trkpt>
      <trkpt lat="50.47301" lon="3.68674">
        <ele>23</ele>
        <time>2024-05-08T22:12:05Z</time>
      </trkpt>
      <trkpt lat="50.47324" lon="3.68601">
        <ele>24</ele>
        <time>2024-05-08T22:12:18Z</time>
      </trkpt>
      <trkpt lat="50.47381" lon="3.68539">
        <ele>26</ele>
        <time>2024-05-08T22:12:34Z</time>
      </trkpt>
      <trkpt lat="50.47413" lon="3.68508">
        <ele>27</ele>
        <time>2024-05-08T22:12:42Z</time>
      </trkpt>
      <trkpt lat="50.47435" lon="3.68488">
        <ele>26</ele>
        <time>2024-05-08T22:12:48Z</time>
      </trkpt>
      <trkpt lat="50.47439" lon="3.6846">
        <ele>25</ele>
        <time>2024-05-08T22:12:53Z</time>
      </trkpt>
      <trkpt lat="50.47425" lon="3.68441">
        <ele>26</ele>
        <time>2024-05-08T22:12:57Z</time>
      </trkpt>
      <trkpt lat="50.47421" lon="3.68424">
        <ele>26</ele>
        <time>2024-05-08T22:13:00Z</time>
      </trkpt>
      <trkpt lat="50.47404" lon="3.68417">
        <ele>26</ele>
        <time>2024-05-08T22:13:04Z</time>
      </trkpt>
      <trkpt lat="50.47386" lon="3.68403">
        <ele>25</ele>
        <time>2024-05-08T22:13:08Z</time>
      </trkpt>
      <trkpt lat="50.4738" lon="3.68385">
        <ele>25</ele>
        <time>2024-05-08T22:13:12Z</time>
      </trkpt>
      <trkpt lat="50.47364" lon="3.68356">
        <ele>24</ele>
        <time>2024-05-08T22:13:17Z</time>
      </trkpt>
      <trkpt lat="50.4734" lon="3.68291">
        <ele>25</ele>
        <time>2024-05-08T22:13:28Z</time>
      </trkpt>
      <trkpt lat="50.47319" lon="3.68221">
        <ele>27</ele>
        <time>2024-05-08T22:13:40Z</time>
      </trkpt>
      <trkpt lat="50.47316" lon="3.68191">
        <ele>27</ele>
        <time>2024-05-08T22:13:44Z</time>
      </trkpt>
      <trkpt lat="50.47313" lon="3.68139">
        <ele>26</ele>
        <time>2024-05-08T22:13:52Z</time>
      </trkpt>
      <trkpt lat="50.47326" lon="3.68078">
        <ele>25</ele>
        <time>2024-05-08T22:14:02Z</time>
      </trkpt>
      <trkpt lat="50.4734" lon="3.68015">
        <ele>24</ele>
        <time>2024-05-08T22:14:12Z</time>
      </trkpt>
      <trkpt lat="50.47354" lon="3.67976">
        <ele>24</ele>
        <time>2024-05-08T22:14:18Z</time>
      </trkpt>
      <trkpt lat="50.47392" lon="3.67937">
        <ele>23</ele>
        <time>2024-05-08T22:14:29Z</time>
      </trkpt>
      <trkpt lat="50.4745" lon="3.67872">
        <ele>24</ele>
        <time>2024-05-08T22:14:46Z</time>
      </trkpt>
      <trkpt lat="50.47477" lon="3.67839">
        <ele>24</ele>
        <time>2024-05-08T22:14:54Z</time>
      </trkpt>
      <trkpt lat="50.47501" lon="3.67813">
        <ele>23</ele>
        <time>2024-05-08T22:15:00Z</time>
      </trkpt>
      <trkpt lat="50.47548" lon="3.67758">
        <ele>22</ele>
        <time>2024-05-08T22:15:14Z</time>
      </trkpt>
      <trkpt lat="50.47592" lon="3.67706">
        <ele>20</ele>
        <time>2024-05-08T22:15:27Z</time>
      </trkpt>
      <trkpt lat="50.47675" lon="3.67613">
        <ele>20</ele>
        <time>2024-05-08T22:15:51Z</time>
      </trkpt>
      <trkpt lat="50.47697" lon="3.67585">
        <ele>20</ele>
        <time>2024-05-08T22:15:57Z</time>
      </trkpt>
      <trkpt lat="50.47766" lon="3.67505">
        <ele>19</ele>
        <time>2024-05-08T22:16:17Z</time>
      </trkpt>
      <trkpt lat="50.47791" lon="3.67475">
        <ele>20</ele>
        <time>2024-05-08T22:16:25Z</time>
      </trkpt>
      <trkpt lat="50.4786" lon="3.67389">
        <ele>22</ele>
        <time>2024-05-08T22:16:45Z</time>
      </trkpt>
      <trkpt lat="50.47871" lon="3.67369">
        <ele>22</ele>
        <time>2024-05-08T22:16:49Z</time>
      </trkpt>
      <trkpt lat="50.47884" lon="3.67358">
        <ele>22</ele>
        <time>2024-05-08T22:16:53Z</time>
      </trkpt>
      <trkpt lat="50.479" lon="3.67351">
        <ele>23</ele>
        <time>2024-05-08T22:16:56Z</time>
      </trkpt>
      <trkpt lat="50.47944" lon="3.67304">
        <ele>23</ele>
        <time>2024-05-08T22:17:09Z</time>
      </trkpt>
      <trkpt lat="50.47958" lon="3.67288">
        <ele>23</ele>
        <time>2024-05-08T22:17:13Z</time>
      </trkpt>
      <trkpt lat="50.47989" lon="3.67251">
        <ele>25</ele>
        <time>2024-05-08T22:17:22Z</time>
      </trkpt>
      <trkpt lat="50.48052" lon="3.67178">
        <ele>27</ele>
        <time>2024-05-08T22:17:40Z</time>
      </trkpt>
      <trkpt lat="50.4809" lon="3.67133">
        <ele>27</ele>
        <time>2024-05-08T22:17:51Z</time>
      </trkpt>
      <trkpt lat="50.48172" lon="3.67022">
        <ele>26</ele>
        <time>2024-05-08T22:18:17Z</time>
      </trkpt>
      <trkpt lat="50.48195" lon="3.67012">
        <ele>26</ele>
        <time>2024-05-08T22:18:22Z</time>
      </trkpt>
      <trkpt lat="50.48261" lon="3.66942">
        <ele>24</ele>
        <time>2024-05-08T22:18:41Z</time>
      </trkpt>
      <trkpt lat="50.4829" lon="3.66906">
        <ele>25</ele>
        <time>2024-05-08T22:18:49Z</time>
      </trkpt>
      <trkpt lat="50.48355" lon="3.6683">
        <ele>28</ele>
        <time>2024-05-08T22:19:08Z</time>
      </trkpt>
      <trkpt lat="50.4842" lon="3.66751">
        <ele>29</ele>
        <time>2024-05-08T22:19:28Z</time>
      </trkpt>
      <trkpt lat="50.4846" lon="3.66694">
        <ele>30</ele>
        <time>2024-05-08T22:19:40Z</time>
      </trkpt>
      <trkpt lat="50.48503" lon="3.66655">
        <ele>31</ele>
        <time>2024-05-08T22:19:52Z</time>
      </trkpt>
      <trkpt lat="50.48544" lon="3.66608">
        <ele>30</ele>
        <time>2024-05-08T22:20:04Z</time>
      </trkpt>
      <trkpt lat="50.48593" lon="3.6655">
        <ele>30</ele>
        <time>2024-05-08T22:20:18Z</time>
      </trkpt>
      <trkpt lat="50.48636" lon="3.66499">
        <ele>30</ele>
        <time>2024-05-08T22:20:31Z</time>
      </trkpt>
      <trkpt lat="50.48727" lon="3.66394">
        <ele>30</ele>
        <time>2024-05-08T22:20:57Z</time>
      </trkpt>
      <trkpt lat="50.48743" lon="3.66364">
        <ele>30</ele>
        <time>2024-05-08T22:21:03Z</time>
      </trkpt>
      <trkpt lat="50.48765" lon="3.66341">
        <ele>30</ele>
        <time>2024-05-08T22:21:09Z</time>
      </trkpt>
      <trkpt lat="50.48773" lon="3.6634">
        <ele>30</ele>
        <time>2024-05-08T22:21:11Z</time>
      </trkpt>
      <trkpt lat="50.48844" lon="3.66258">
        <ele>30</ele>
        <time>2024-05-08T22:21:31Z</time>
      </trkpt>
      <trkpt lat="50.48965" lon="3.66121">
        <ele>35</ele>
        <time>2024-05-08T22:22:06Z</time>
      </trkpt>
      <trkpt lat="50.48969" lon="3.66128">
        <ele>35</ele>
        <time>2024-05-08T22:22:08Z</time>
      </trkpt>
      <trkpt lat="50.4897" lon="3.66156">
        <ele>34</ele>
        <time>2024-05-08T22:22:12Z</time>
      </trkpt>
      <trkpt lat="50.48981" lon="3.66178">
        <ele>34</ele>
        <time>2024-05-08T22:22:16Z</time>
      </trkpt>
      <trkpt lat="50.49001" lon="3.6621">
        <ele>35</ele>
        <time>2024-05-08T22:22:23Z</time>
      </trkpt>
      <trkpt lat="50.49024" lon="3.66227">
        <ele>35</ele>
        <time>2024-05-08T22:22:29Z</time>
      </trkpt>
      <trkpt lat="50.49048" lon="3.66141">
        <ele>34</ele>
        <time>2024-05-08T22:22:42Z</time>
      </trkpt>
      <trkpt lat="50.49074" lon="3.66066">
        <ele>33</ele>
        <time>2024-05-08T22:22:55Z</time>
      </trkpt>
      <trkpt lat="50.49068" lon="3.66025">
        <ele>32</ele>
        <time>2024-05-08T22:23:01Z</time>
      </trkpt>
      <trkpt lat="50.49067" lon="3.65999">
        <ele>31</ele>
        <time>2024-05-08T22:23:05Z</time>
      </trkpt>
      <trkpt lat="50.49053" lon="3.65969">
        <ele>31</ele>
        <time>2024-05-08T22:23:11Z</time>
      </trkpt>
      <trkpt lat="50.49069" lon="3.65941">
        <ele>31</ele>
        <time>2024-05-08T22:23:16Z</time>
      </trkpt>
      <trkpt lat="50.49117" lon="3.65851">
        <ele>29</ele>
        <time>2024-05-08T22:23:34Z</time>
      </trkpt>
      <trkpt lat="50.49135" lon="3.65809">
        <ele>29</ele>
        <time>2024-05-08T22:23:41Z</time>
      </trkpt>
      <trkpt lat="50.49165" lon="3.65741">
        <ele>31</ele>
        <time>2024-05-08T22:23:54Z</time>
      </trkpt>
      <trkpt lat="50.49187" lon="3.65671">
        <ele>35</ele>
        <time>2024-05-08T22:24:05Z</time>
      </trkpt>
      <trkpt lat="50.49211" lon="3.65588">
        <ele>36</ele>
        <time>2024-05-08T22:24:19Z</time>
      </trkpt>
      <trkpt lat="50.49214" lon="3.65582">
        <ele>36</ele>
        <time>2024-05-08T22:24:20Z</time>
      </trkpt>
      <trkpt lat="50.49228" lon="3.65549">
        <ele>36</ele>
        <time>2024-05-08T22:24:26Z</time>
      </trkpt>
      <trkpt lat="50.49281" lon="3.65375">
        <ele>34</ele>
        <time>2024-05-08T22:24:54Z</time>
      </trkpt>
      <trkpt lat="50.49323" lon="3.65232">
        <ele>31</ele>
        <time>2024-05-08T22:25:18Z</time>
      </trkpt>
      <trkpt lat="50.49381" lon="3.6504">
        <ele>33</ele>
        <time>2024-05-08T22:25:49Z</time>
      </trkpt>
      <trkpt lat="50.49398" lon="3.6498">
        <ele>35</ele>
        <time>2024-05-08T22:25:59Z</time>
      </trkpt>
      <trkpt lat="50.49395" lon="3.64966">
        <ele>35</ele>
        <time>2024-05-08T22:26:01Z</time>
      </trkpt>
      <trkpt lat="50.49407" lon="3.64929">
        <ele>37</ele>
        <time>2024-05-08T22:26:08Z</time>
      </trkpt>
      <trkpt lat="50.49435" lon="3.64834">
        <ele>37</ele>
        <time>2024-05-08T22:26:23Z</time>
      </trkpt>
      <trkpt lat="50.49457" lon="3.64766">
        <ele>38</ele>
        <time>2024-05-08T22:26:34Z</time>
      </trkpt>
      <trkpt lat="50.49489" lon="3.64685">
        <ele>40</ele>
        <time>2024-05-08T22:26:49Z</time>
      </trkpt>
      <trkpt lat="50.49514" lon="3.64622">
        <ele>42</ele>
        <time>2024-05-08T22:27:00Z</time>
      </trkpt>
      <trkpt lat="50.49538" lon="3.64556">
        <ele>43</ele>
        <time>2024-05-08T22:27:11Z</time>
      </trkpt>
      <trkpt lat="50.49563" lon="3.64487">
        <ele>43</ele>
        <time>2024-05-08T22:27:23Z</time>
      </trkpt>
      <trkpt lat="50.49597" lon="3.64409">
        <ele>44</ele>
        <time>2024-05-08T22:27:37Z</time>
      </trkpt>
      <trkpt lat="50.49613" lon="3.64383">
        <ele>45</ele>
        <time>2024-05-08T22:27:42Z</time>
      </trkpt>
      <trkpt lat="50.49634" lon="3.64361">
        <ele>45</ele>
        <time>2024-05-08T22:27:48Z</time>
      </trkpt>
      <trkpt lat="50.49659" lon="3.64314">
        <ele>46</ele>
        <time>2024-05-08T22:27:57Z</time>
      </trkpt>
      <trkpt lat="50.49741" lon="3.64167">
        <ele>50</ele>
        <time>2024-05-08T22:28:26Z</time>
      </trkpt>
      <trkpt lat="50.49801" lon="3.64069">
        <ele>50</ele>
        <time>2024-05-08T22:28:46Z</time>
      </trkpt>
      <trkpt lat="50.49853" lon="3.63992">
        <ele>50</ele>
        <time>2024-05-08T22:29:03Z</time>
      </trkpt>
      <trkpt lat="50.49891" lon="3.63938">
        <ele>51</ele>
        <time>2024-05-08T22:29:15Z</time>
      </trkpt>
      <trkpt lat="50.49938" lon="3.63879">
        <ele>48</ele>
        <time>2024-05-08T22:29:29Z</time>
      </trkpt>
      <trkpt lat="50.49945" lon="3.63854">
        <ele>48</ele>
        <time>2024-05-08T22:29:33Z</time>
      </trkpt>
      <trkpt lat="50.49961" lon="3.63824">
        <ele>47</ele>
        <time>2024-05-08T22:29:39Z</time>
      </trkpt>
      <trkpt lat="50.49974" lon="3.63797">
        <ele>46</ele>
        <time>2024-05-08T22:29:44Z</time>
      </trkpt>
      <trkpt lat="50.49985" lon="3.63772">
        <ele>45</ele>
        <time>2024-05-08T22:29:49Z</time>
      </trkpt>
      <trkpt lat="50.49977" lon="3.6377">
        <ele>46</ele>
        <time>2024-05-08T22:29:50Z</time>
      </trkpt>
      <trkpt lat="50.49966" lon="3.63777">
        <ele>47</ele>
        <time>2024-05-08T22:29:53Z</time>
      </trkpt>
      <trkpt lat="50.49965" lon="3.6379">
        <ele>47</ele>
        <time>2024-05-08T22:29:55Z</time>
      </trkpt>
      <trkpt lat="50.49956" lon="3.63804">
        <ele>48</ele>
        <time>2024-05-08T22:29:58Z</time>
      </trkpt>
      <trkpt lat="50.49947" lon="3.63801">
        <ele>49</ele>
        <time>2024-05-08T22:30:00Z</time>
      </trkpt>
      <trkpt lat="50.4994" lon="3.6382">
        <ele>49</ele>
        <time>2024-05-08T22:30:04Z</time>
      </trkpt>
      <trkpt lat="50.49929" lon="3.63831">
        <ele>51</ele>
        <time>2024-05-08T22:30:07Z</time>
      </trkpt>
      <trkpt lat="50.49896" lon="3.63843">
        <ele>53</ele>
        <time>2024-05-08T22:30:14Z</time>
      </trkpt>
      <trkpt lat="50.49887" lon="3.63851">
        <ele>53</ele>
        <time>2024-05-08T22:30:17Z</time>
      </trkpt>
      <trkpt lat="50.49874" lon="3.63859">
        <ele>54</ele>
        <time>2024-05-08T22:30:20Z</time>
      </trkpt>
      <trkpt lat="50.49872" lon="3.63876">
        <ele>54</ele>
        <time>2024-05-08T22:30:23Z</time>
      </trkpt>
      <trkpt lat="50.49841" lon="3.63925">
        <ele>56</ele>
        <time>2024-05-08T22:30:33Z</time>
      </trkpt>
      <trkpt lat="50.49785" lon="3.64014">
        <ele>54</ele>
        <time>2024-05-08T22:30:52Z</time>
      </trkpt>
      <trkpt lat="50.49731" lon="3.64098">
        <ele>53</ele>
        <time>2024-05-08T22:31:09Z</time>
      </trkpt>
      <trkpt lat="50.49699" lon="3.64149">
        <ele>53</ele>
        <time>2024-05-08T22:31:20Z</time>
      </trkpt>
      <trkpt lat="50.49689" lon="3.64168">
        <ele>53</ele>
        <time>2024-05-08T22:31:24Z</time>
      </trkpt>
      <trkpt lat="50.49676" lon="3.64194">
        <ele>53</ele>
        <time>2024-05-08T22:31:29Z</time>
      </trkpt>
      <trkpt lat="50.49666" lon="3.64198">
        <ele>53</ele>
        <time>2024-05-08T22:31:31Z</time>
      </trkpt>
      <trkpt lat="50.49659" lon="3.64207">
        <ele>53</ele>
        <time>2024-05-08T22:31:33Z</time>
      </trkpt>
      <trkpt lat="50.49646" lon="3.64235">
        <ele>51</ele>
        <time>2024-05-08T22:31:38Z</time>
      </trkpt>
      <trkpt lat="50.49651" lon="3.64254">
        <ele>50</ele>
        <time>2024-05-08T22:31:41Z</time>
      </trkpt>
      <trkpt lat="50.49645" lon="3.64276">
        <ele>49</ele>
        <time>2024-05-08T22:31:45Z</time>
      </trkpt>
      <trkpt lat="50.49634" lon="3.64289">
        <ele>48</ele>
        <time>2024-05-08T22:31:48Z</time>
      </trkpt>
      <trkpt lat="50.49618" lon="3.64317">
        <ele>47</ele>
        <time>2024-05-08T22:31:54Z</time>
      </trkpt>
      <trkpt lat="50.49608" lon="3.64334">
        <ele>46</ele>
        <time>2024-05-08T22:31:57Z</time>
      </trkpt>
      <trkpt lat="50.49593" lon="3.64333">
        <ele>47</ele>
        <time>2024-05-08T22:32:01Z</time>
      </trkpt>
      <trkpt lat="50.49582" lon="3.64317">
        <ele>47</ele>
        <time>2024-05-08T22:32:04Z</time>
      </trkpt>
      <trkpt lat="50.49577" lon="3.64293">
        <ele>47</ele>
        <time>2024-05-08T22:32:08Z</time>
      </trkpt>
      <trkpt lat="50.49567" lon="3.6423">
        <ele>48</ele>
        <time>2024-05-08T22:32:17Z</time>
      </trkpt>
      <trkpt lat="50.49562" lon="3.64208">
        <ele>48</ele>
        <time>2024-05-08T22:32:21Z</time>
      </trkpt>
      <trkpt lat="50.49566" lon="3.64157">
        <ele>50</ele>
        <time>2024-05-08T22:32:29Z</time>
      </trkpt>
      <trkpt lat="50.49578" lon="3.64108">
        <ele>53</ele>
        <time>2024-05-08T22:32:36Z</time>
      </trkpt>
      <trkpt lat="50.49636" lon="3.64046">
        <ele>57</ele>
        <time>2024-05-08T22:32:53Z</time>
      </trkpt>
      <trkpt lat="50.49654" lon="3.64026">
        <ele>57</ele>
        <time>2024-05-08T22:32:58Z</time>
      </trkpt>
      <trkpt lat="50.49696" lon="3.63965">
        <ele>59</ele>
        <time>2024-05-08T22:33:11Z</time>
      </trkpt>
      <trkpt lat="50.49721" lon="3.6392">
        <ele>62</ele>
        <time>2024-05-08T22:33:20Z</time>
      </trkpt>
      <trkpt lat="50.49779" lon="3.63811">
        <ele>61</ele>
        <time>2024-05-08T22:33:41Z</time>
      </trkpt>
      <trkpt lat="50.49788" lon="3.63792">
        <ele>60</ele>
        <time>2024-05-08T22:33:45Z</time>
      </trkpt>
      <trkpt lat="50.49783" lon="3.63781">
        <ele>60</ele>
        <time>2024-05-08T22:33:47Z</time>
      </trkpt>
      <trkpt lat="50.49703" lon="3.6375">
        <ele>63</ele>
        <time>2024-05-08T22:34:06Z</time>
      </trkpt>
      <trkpt lat="50.4965" lon="3.63729">
        <ele>65</ele>
        <time>2024-05-08T22:34:19Z</time>
      </trkpt>
      <trkpt lat="50.49604" lon="3.63701">
        <ele>63</ele>
        <time>2024-05-08T22:34:30Z</time>
      </trkpt>
      <trkpt lat="50.49559" lon="3.636">
        <ele>62</ele>
        <time>2024-05-08T22:34:49Z</time>
      </trkpt>
      <trkpt lat="50.49559" lon="3.63537">
        <ele>63</ele>
        <time>2024-05-08T22:34:58Z</time>
      </trkpt>
      <trkpt lat="50.49546" lon="3.63463">
        <ele>62</ele>
        <time>2024-05-08T22:35:09Z</time>
      </trkpt>
      <trkpt lat="50.49522" lon="3.63303">
        <ele>57</ele>
        <time>2024-05-08T22:35:34Z</time>
      </trkpt>
      <trkpt lat="50.49513" lon="3.63239">
        <ele>56</ele>
        <time>2024-05-08T22:35:44Z</time>
      </trkpt>
      <trkpt lat="50.4949" lon="3.63273">
        <ele>55</ele>
        <time>2024-05-08T22:35:51Z</time>
      </trkpt>
      <trkpt lat="50.49456" lon="3.63306">
        <ele>54</ele>
        <time>2024-05-08T22:36:00Z</time>
      </trkpt>
      <trkpt lat="50.49394" lon="3.63356">
        <ele>52</ele>
        <time>2024-05-08T22:36:17Z</time>
      </trkpt>
      <trkpt lat="50.49368" lon="3.63219">
        <ele>50</ele>
        <time>2024-05-08T22:36:38Z</time>
      </trkpt>
      <trkpt lat="50.49335" lon="3.63046">
        <ele>49</ele>
        <time>2024-05-08T22:37:05Z</time>
      </trkpt>
      <trkpt lat="50.49288" lon="3.62803">
        <ele>47</ele>
        <time>2024-05-08T22:37:42Z</time>
      </trkpt>
      <trkpt lat="50.49253" lon="3.62624">
        <ele>46</ele>
        <time>2024-05-08T22:38:10Z</time>
      </trkpt>
      <trkpt lat="50.49221" lon="3.62463">
        <ele>44</ele>
        <time>2024-05-08T22:38:35Z</time>
      </trkpt>
      <trkpt lat="50.49138" lon="3.62442">
        <ele>46</ele>
        <time>2024-05-08T22:38:55Z</time>
      </trkpt>
      <trkpt lat="50.49086" lon="3.62428">
        <ele>47</ele>
        <time>2024-05-08T22:39:07Z</time>
      </trkpt>
      <trkpt lat="50.49043" lon="3.62416">
        <ele>47</ele>
        <time>2024-05-08T22:39:17Z</time>
      </trkpt>
      <trkpt lat="50.4893" lon="3.62386">
        <ele>47</ele>
        <time>2024-05-08T22:39:44Z</time>
      </trkpt>
      <trkpt lat="50.48828" lon="3.62359">
        <ele>45</ele>
        <time>2024-05-08T22:40:08Z</time>
      </trkpt>
      <trkpt lat="50.48731" lon="3.62333">
        <ele>43</ele>
        <time>2024-05-08T22:40:31Z</time>
      </trkpt>
      <trkpt lat="50.48629" lon="3.62306">
        <ele>42</ele>
        <time>2024-05-08T22:40:55Z</time>
      </trkpt>
      <trkpt lat="50.48501" lon="3.62272">
        <ele>34</ele>
        <time>2024-05-08T22:41:26Z</time>
      </trkpt>
      <trkpt lat="50.48521" lon="3.62234">
        <ele>35</ele>
        <time>2024-05-08T22:41:33Z</time>
      </trkpt>
      <trkpt lat="50.48567" lon="3.62142">
        <ele>38</ele>
        <time>2024-05-08T22:41:50Z</time>
      </trkpt>
      <trkpt lat="50.48597" lon="3.62084">
        <ele>39</ele>
        <time>2024-05-08T22:42:02Z</time>
      </trkpt>
      <trkpt lat="50.48646" lon="3.61989">
        <ele>39</ele>
        <time>2024-05-08T22:42:20Z</time>
      </trkpt>
      <trkpt lat="50.48683" lon="3.61916">
        <ele>39</ele>
        <time>2024-05-08T22:42:34Z</time>
      </trkpt>
      <trkpt lat="50.48718" lon="3.61876">
        <ele>39</ele>
        <time>2024-05-08T22:42:44Z</time>
      </trkpt>
      <trkpt lat="50.4877" lon="3.61815">
        <ele>39</ele>
        <time>2024-05-08T22:42:59Z</time>
      </trkpt>
      <trkpt lat="50.48838" lon="3.61739">
        <ele>43</ele>
        <time>2024-05-08T22:43:18Z</time>
      </trkpt>
      <trkpt lat="50.48866" lon="3.61707">
        <ele>42</ele>
        <time>2024-05-08T22:43:26Z</time>
      </trkpt>
      <trkpt lat="50.48905" lon="3.61662">
        <ele>43</ele>
        <time>2024-05-08T22:43:38Z</time>
      </trkpt>
      <trkpt lat="50.48951" lon="3.61613">
        <ele>42</ele>
        <time>2024-05-08T22:43:51Z</time>
      </trkpt>
      <trkpt lat="50.48993" lon="3.61563">
        <ele>43</ele>
        <time>2024-05-08T22:44:03Z</time>
      </trkpt>
      <trkpt lat="50.49039" lon="3.61535">
        <ele>45</ele>
        <time>2024-05-08T22:44:15Z</time>
      </trkpt>
      <trkpt lat="50.49063" lon="3.61539">
        <ele>46</ele>
        <time>2024-05-08T22:44:20Z</time>
      </trkpt>
      <trkpt lat="50.4913" lon="3.61535">
        <ele>48</ele>
        <time>2024-05-08T22:44:36Z</time>
      </trkpt>
      <trkpt lat="50.49231" lon="3.61531">
        <ele>47</ele>
        <time>2024-05-08T22:44:59Z</time>
      </trkpt>
      <trkpt lat="50.49244" lon="3.61459">
        <ele>47</ele>
        <time>2024-05-08T22:45:11Z</time>
      </trkpt>
      <trkpt lat="50.49248" lon="3.61373">
        <ele>47</ele>
        <time>2024-05-08T22:45:23Z</time>
      </trkpt>
      <trkpt lat="50.49258" lon="3.61338">
        <ele>48</ele>
        <time>2024-05-08T22:45:29Z</time>
      </trkpt>
      <trkpt lat="50.49285" lon="3.613">
        <ele>48</ele>
        <time>2024-05-08T22:45:37Z</time>
      </trkpt>
      <trkpt lat="50.49345" lon="3.61264">
        <ele>47</ele>
        <time>2024-05-08T22:45:52Z</time>
      </trkpt>
      <trkpt lat="50.49379" lon="3.61261">
        <ele>47</ele>
        <time>2024-05-08T22:46:00Z</time>
      </trkpt>
      <trkpt lat="50.49402" lon="3.61265">
        <ele>46</ele>
        <time>2024-05-08T22:46:06Z</time>
      </trkpt>
      <trkpt lat="50.49427" lon="3.61255">
        <ele>46</ele>
        <time>2024-05-08T22:46:12Z</time>
      </trkpt>
      <trkpt lat="50.49455" lon="3.61228">
        <ele>47</ele>
        <time>2024-05-08T22:46:20Z</time>
      </trkpt>
      <trkpt lat="50.49471" lon="3.61201">
        <ele>47</ele>
        <time>2024-05-08T22:46:25Z</time>
      </trkpt>
      <trkpt lat="50.49491" lon="3.61187">
        <ele>47</ele>
        <time>2024-05-08T22:46:30Z</time>
      </trkpt>
      <trkpt lat="50.49542" lon="3.61144">
        <ele>48</ele>
        <time>2024-05-08T22:46:44Z</time>
      </trkpt>
      <trkpt lat="50.49563" lon="3.61137">
        <ele>48</ele>
        <time>2024-05-08T22:46:49Z</time>
      </trkpt>
      <trkpt lat="50.49571" lon="3.61132">
        <ele>49</ele>
        <time>2024-05-08T22:46:51Z</time>
      </trkpt>
      <trkpt lat="50.49595" lon="3.61123">
        <ele>50</ele>
        <time>2024-05-08T22:46:56Z</time>
      </trkpt>
      <trkpt lat="50.49614" lon="3.61126">
        <ele>51</ele>
        <time>2024-05-08T22:47:01Z</time>
      </trkpt>
      <trkpt lat="50.49692" lon="3.61121">
        <ele>54</ele>
        <time>2024-05-08T22:47:19Z</time>
      </trkpt>
      <trkpt lat="50.49698" lon="3.61105">
        <ele>55</ele>
        <time>2024-05-08T22:47:22Z</time>
      </trkpt>
      <trkpt lat="50.49682" lon="3.61053">
        <ele>53</ele>
        <time>2024-05-08T22:47:30Z</time>
      </trkpt>
      <trkpt lat="50.49682" lon="3.60936">
        <ele>53</ele>
        <time>2024-05-08T22:47:48Z</time>
      </trkpt>
      <trkpt lat="50.49648" lon="3.60864">
        <ele>52</ele>
        <time>2024-05-08T22:48:01Z</time>
      </trkpt>
      <trkpt lat="50.49628" lon="3.6082">
        <ele>52</ele>
        <time>2024-05-08T22:48:09Z</time>
      </trkpt>
      <trkpt lat="50.49593" lon="3.60769">
        <ele>51</ele>
        <time>2024-05-08T22:48:20Z</time>
      </trkpt>
      <trkpt lat="50.4953" lon="3.60695">
        <ele>49</ele>
        <time>2024-05-08T22:48:39Z</time>
      </trkpt>
      <trkpt lat="50.49516" lon="3.60639">
        <ele>48</ele>
        <time>2024-05-08T22:48:48Z</time>
      </trkpt>
      <trkpt lat="50.49584" lon="3.60474">
        <ele>57</ele>
        <time>2024-05-08T22:49:17Z</time>
      </trkpt>
      <trkpt lat="50.49566" lon="3.60397">
        <ele>55</ele>
        <time>2024-05-08T22:49:29Z</time>
      </trkpt>
      <trkpt lat="50.49523" lon="3.6028">
        <ele>54</ele>
        <time>2024-05-08T22:49:49Z</time>
      </trkpt>
      <trkpt lat="50.4946" lon="3.60169">
        <ele>54</ele>
        <time>2024-05-08T22:50:11Z</time>
      </trkpt>
      <trkpt lat="50.49429" lon="3.60105">
        <ele>53</ele>
        <time>2024-05-08T22:50:23Z</time>
      </trkpt>
      <trkpt lat="50.49386" lon="3.60026">
        <ele>53</ele>
        <time>2024-05-08T22:50:39Z</time>
      </trkpt>
      <trkpt lat="50.49367" lon="3.59999">
        <ele>54</ele>
        <time>2024-05-08T22:50:45Z</time>
      </trkpt>
      <trkpt lat="50.49354" lon="3.59982">
        <ele>54</ele>
        <time>2024-05-08T22:50:49Z</time>
      </trkpt>
      <trkpt lat="50.49337" lon="3.59966">
        <ele>54</ele>
        <time>2024-05-08T22:50:53Z</time>
      </trkpt>
      <trkpt lat="50.49319" lon="3.59949">
        <ele>54</ele>
        <time>2024-05-08T22:50:58Z</time>
      </trkpt>
      <trkpt lat="50.49269" lon="3.59871">
        <ele>54</ele>
        <time>2024-05-08T22:51:15Z</time>
      </trkpt>
      <trkpt lat="50.49162" lon="3.59575">
        <ele>56</ele>
        <time>2024-05-08T22:52:05Z</time>
      </trkpt>
      <trkpt lat="50.49119" lon="3.59462">
        <ele>54</ele>
        <time>2024-05-08T22:52:25Z</time>
      </trkpt>
      <trkpt lat="50.49074" lon="3.59333">
        <ele>55</ele>
        <time>2024-05-08T22:52:47Z</time>
      </trkpt>
      <trkpt lat="50.49084" lon="3.59322">
        <ele>55</ele>
        <time>2024-05-08T22:52:49Z</time>
      </trkpt>
      <trkpt lat="50.49129" lon="3.593">
        <ele>55</ele>
        <time>2024-05-08T22:53:00Z</time>
      </trkpt>
      <trkpt lat="50.49355" lon="3.59161">
        <ele>42</ele>
        <time>2024-05-08T22:53:57Z</time>
      </trkpt>
      <trkpt lat="50.49509" lon="3.59076">
        <ele>40</ele>
        <time>2024-05-08T22:54:35Z</time>
      </trkpt>
      <trkpt lat="50.49748" lon="3.58988">
        <ele>39</ele>
        <time>2024-05-08T22:55:32Z</time>
      </trkpt>
      <trkpt lat="50.49879" lon="3.58938">
        <ele>39</ele>
        <time>2024-05-08T22:56:04Z</time>
      </trkpt>
      <trkpt lat="50.50031" lon="3.5892">
        <ele>41</ele>
        <time>2024-05-08T22:56:40Z</time>
      </trkpt>
      <trkpt lat="50.50077" lon="3.58924">
        <ele>41</ele>
        <time>2024-05-08T22:56:50Z</time>
      </trkpt>
      <trkpt lat="50.50196" lon="3.58924">
        <ele>42</ele>
        <time>2024-05-08T22:57:18Z</time>
      </trkpt>
      <trkpt lat="50.50208" lon="3.58885">
        <ele>42</ele>
        <time>2024-05-08T22:57:25Z</time>
      </trkpt>
      <trkpt lat="50.50259" lon="3.58877">
        <ele>43</ele>
        <time>2024-05-08T22:57:37Z</time>
      </trkpt>
    </trkseg>
  </trk>
</gpx>